SondeTracker

Meteorological Radiosondes Database

Operations

Sounding was ended - last measurement: 2022-12-07 02:09:28z

MAP
About Radiosonde

Number: T0340970

Launch Site: A Coruña (ES)

Type: RS41

AUX: NO

Frequency: 404.001 MHz

Max Speed: 165 km/h at 32931 m

Average Speed: 44.37 km/h

Max Altitude: 33029 m

Average Ascent Speed: 4.19 m/s

Average Descent Speed: 12.02 m/s

Status: UNKNOWN

Status Changes
Launch Site Type AUX Frequency Status Finder Landing Point Description Changes made by
APRS Statistics

Received Frames: 643

First Frame [UTC]: 2022-12-06 23:18:00z

Last Frame [UTC]: 2022-12-07 02:09:28z

Receivers: CT7ABP-10, CT7AUS-11, EA1JAY-15, EA1JAY-16, EA4EKH-11, EB4FMT-14

Flight Time: 02:51:28 h

Distance From First Measurement: 88.63 km

Nearest City: Castro de Rey (ES) [13.14 km]

Nearest Hunter: ea1hcx [26.77 km]

Ground Altitude: 528 m

Distance from QTH: 0.00 km

APRS Data
Receiver Number Date/Time [UTC] φ λ Course [°] Speed [km/h] Altitude [m] Description
EA1JAY-16T03409702022-12-07 02:09:2843.3211-7.3535926317979Clb=-6.2m/s p=907.7hPa t=8.5C h=81.3% 404.000MHz Type=RS41-SGP TxOff=7h46m rdzTTGOsonde
EA1JAY-16T03409702022-12-07 02:09:0843.3212-7.3528425591102Clb=-5.9m/s p=894.4hPa t=8.2C h=72.4% 404.000MHz Type=RS41-SGP TxOff=7h46m rdzTTGOsonde
EA1JAY-16T03409702022-12-07 02:08:4743.3214-7.352617921234Clb=-6.4m/s p=880.0hPa t=7.8C h=51.3% 404.000MHz Type=RS41-SGP TxOff=7h46m rdzTTGOsonde
EA1JAY-16T03409702022-12-07 02:08:0643.3215-7.352677641489Clb=-5.7m/s p=853.1hPa t=5.5C h=53.7% 404.000MHz Type=RS41-SGP TxOff=7h47m rdzTTGOsonde
EA1JAY-16T03409702022-12-07 02:07:2443.3212-7.352942591740Clb=-6.6m/s p=827.4hPa t=3.2C h=60.9% 404.000MHz Type=RS41-SGP TxOff=7h48m rdzTTGOsonde
EA1JAY-16T03409702022-12-07 02:07:0343.3209-7.3534250111867Clb=-6.7m/s p=814.6hPa t=2.0C h=64.8% 404.000MHz Type=RS41-SGP TxOff=7h48m rdzTTGOsonde
EA1JAY-16T03409702022-12-07 02:06:4243.3205-7.353845111982Clb=-5.0m/s p=803.1hPa t=0.9C h=68.9% 404.000MHz Type=RS41-SGP TxOff=7h49m rdzTTGOsonde
EA1JAY-15T03409702022-12-07 02:06:2943.3202-7.354139132054Clb=-5.0m/s p=795.8hPa t=0.2C h=71.4% 404.000MHz Type=RS41-SGP TxOff=7h49m rdzTTGOsonde
EA1JAY-16T03409702022-12-07 02:06:2243.32-7.3543356152090Clb=-5.1m/s p=792.5hPa t=-0.2C h=74.0% 404.000MHz Type=RS41-SGP TxOff=7h49m rdzTTGOsonde
EA1JAY-16T03409702022-12-07 02:06:0243.3196-7.3551251152192Clb=-5.8m/s p=782.4hPa t=-1.2C h=77.8% 404.000MHz Type=RS41-SGP TxOff=7h50m rdzTTGOsonde
EA1JAY-15T03409702022-12-07 02:06:0043.3196-7.3551941152203Clb=-5.1m/s p=781.3hPa t=-1.3C h=78.4% 404.000MHz Type=RS41-SGP rdzTTGOsonde
EA1JAY-16T03409702022-12-07 02:05:4143.3191-7.3558645132314Clb=-6.2m/s p=770.4hPa t=-2.3C h=83.9% 404.000MHz Type=RS41-SGP TxOff=7h50m rdzTTGOsonde
EA1JAY-15T03409702022-12-07 02:05:3843.319-7.3559541172332Clb=-5.7m/s p=768.6hPa t=-2.5C h=84.6% 404.000MHz Type=RS41-SGP rdzTTGOsonde
EA1JAY-16T03409702022-12-07 02:05:2143.3184-7.3566639222442Clb=-6.8m/s p=758.0hPa t=-3.4C h=87.3% 404.000MHz Type=RS41-SGP TxOff=7h50m rdzTTGOsonde
EA1JAY-15T03409702022-12-07 02:05:1843.3183-7.3568247242463Clb=-6.8m/s p=756.2hPa t=-3.6C h=88.2% 404.000MHz Type=RS41-SGP rdzTTGOsonde
EA1JAY-16T03409702022-12-07 02:05:0143.3176-7.3577352202579Clb=-6.5m/s p=745.0hPa t=-4.8C h=94.4% 404.000MHz Type=RS41-SGP TxOff=7h51m rdzTTGOsonde
EA1JAY-15T03409702022-12-07 02:04:5843.3174-7.3578947222600Clb=-6.8m/s p=743.2hPa t=-5.0C h=95.7% 404.000MHz Type=RS41-SGP TxOff=7h51m rdzTTGOsonde
EA1JAY-16T03409702022-12-07 02:04:4043.3166-7.3587828242728Clb=-7.7m/s p=730.9hPa t=-6.1C h=99.9% 404.000MHz Type=RS41-SGP TxOff=7h51m rdzTTGOsonde
EA1JAY-15T03409702022-12-07 02:04:3743.3165-7.3588827222751Clb=-7.2m/s p=728.7hPa t=-6.0C h=95.0% 404.000MHz Type=RS41-SGP TxOff=7h51m rdzTTGOsonde
EA1JAY-16T03409702022-12-07 02:04:1943.3155-7.3592820222888Clb=-6.4m/s p=716.5hPa t=-1.7C h=25.0% 404.000MHz Type=RS41-SGP TxOff=7h51m rdzTTGOsonde
EA1JAY-15T03409702022-12-07 02:04:1643.3153-7.3593518192908Clb=-6.8m/s p=714.5hPa t=-1.8C h=25.7% 404.000MHz Type=RS41-SGP TxOff=7h51m rdzTTGOsonde
EA1JAY-16T03409702022-12-07 02:03:5943.3146-7.3596314153038Clb=-7.9m/s p=703.0hPa t=-1.6C h=9.2% 404.000MHz Type=RS41-SGP TxOff=7h51m rdzTTGOsonde
EA1JAY-15T03409702022-12-07 02:03:5543.3144-7.3596815153069Clb=-7.2m/s p=700.2hPa t=-1.8C h=9.4% 404.000MHz Type=RS41-SGP TxOff=7h51m rdzTTGOsonde
EA1JAY-16T03409702022-12-07 02:03:3843.3138-7.359896133204Clb=-8.2m/s p=688.4hPa t=-2.6C h=8.9% 404.000MHz Type=RS41-SGP TxOff=7h51m rdzTTGOsonde
EA1JAY-15T03409702022-12-07 02:03:3443.3137-7.359917133236Clb=-8.1m/s p=685.8hPa t=-2.8C h=8.5% 404.000MHz Type=RS41-SGP TxOff=7h51m rdzTTGOsonde
EA1JAY-16T03409702022-12-07 02:03:1843.3131-7.3601737153370Clb=-8.2m/s p=674.4hPa t=-3.6C h=7.9% 404.000MHz Type=RS41-SGP TxOff=7h52m rdzTTGOsonde
EA1JAY-15T03409702022-12-07 02:03:1443.313-7.3602734153402Clb=-7.8m/s p=671.6hPa t=-3.6C h=10.7% 404.000MHz Type=RS41-SGP TxOff=7h52m rdzTTGOsonde
EA1JAY-16T03409702022-12-07 02:02:5843.3126-7.360664773519Clb=-6.6m/s p=661.6hPa t=-4.5C h=12.6% 404.000MHz Type=RS41-SGP TxOff=7h52m rdzTTGOsonde
EA1JAY-15T03409702022-12-07 02:02:5443.3125-7.360745193546Clb=-6.8m/s p=659.2hPa t=-4.4C h=9.9% 404.000MHz Type=RS41-SGP TxOff=7h52m rdzTTGOsonde
EA1JAY-16T03409702022-12-07 02:02:3743.3123-7.361012843675Clb=-7.1m/s p=648.5hPa t=-5.4C h=10.2% 404.000MHz Type=RS41-SGP TxOff=7h53m rdzTTGOsonde
EA1JAY-15T03409702022-12-07 02:02:3443.3123-7.361025023697Clb=-6.9m/s p=646.7hPa t=-5.6C h=10.3% 404.000MHz Type=RS41-SGP TxOff=7h53m rdzTTGOsonde
EA1JAY-16T03409702022-12-07 02:02:1643.3121-7.361184973834Clb=-7.8m/s p=635.5hPa t=-6.4C h=8.8% 404.000MHz Type=RS41-SGP TxOff=7h53m rdzTTGOsonde
EA1JAY-15T03409702022-12-07 02:02:1343.3121-7.361222673858Clb=-8.8m/s p=633.5hPa t=-6.6C h=8.7% 404.000MHz Type=RS41-SGP TxOff=7h53m rdzTTGOsonde
EA1JAY-16T03409702022-12-07 02:01:5543.3118-7.361534293989Clb=-7.9m/s p=622.9hPa t=-7.3C h=7.7% 404.000MHz Type=RS41-SGP TxOff=7h53m rdzTTGOsonde
EA1JAY-15T03409702022-12-07 02:01:5243.3117-7.361584394011Clb=-7.8m/s p=621.1hPa t=-7.4C h=7.5% 404.000MHz Type=RS41-SGP TxOff=7h53m rdzTTGOsonde
EA1JAY-16T03409702022-12-07 02:01:3543.3114-7.361924294154Clb=-9.5m/s p=610.0hPa t=-8.7C h=8.2% 404.000MHz Type=RS41-SGP TxOff=7h54m rdzTTGOsonde
EA1JAY-15T03409702022-12-07 02:01:3243.3113-7.3619824114182Clb=-9.8m/s p=607.9hPa t=-8.9C h=8.0% 404.000MHz Type=RS41-SGP TxOff=7h54m rdzTTGOsonde
EA1JAY-16T03409702022-12-07 02:01:1543.3108-7.3621727134334Clb=-8.0m/s p=595.9hPa t=-10.0C h=6.8% 404.000MHz Type=RS41-SGP TxOff=7h54m rdzTTGOsonde
EA1JAY-15T03409702022-12-07 02:01:1143.3107-7.3622417134367Clb=-10.0m/s p=593.4hPa t=-10.2C h=6.6% 404.000MHz Type=RS41-SGP TxOff=7h54m rdzTTGOsonde
EA1JAY-16T03409702022-12-07 02:00:5443.3102-7.3627537174517Clb=-9.7m/s p=581.9hPa t=-11.1C h=6.5% 404.000MHz Type=RS41-SGP TxOff=7h55m rdzTTGOsonde
EA1JAY-15T03409702022-12-07 02:00:5143.3101-7.3628434154542Clb=-10.1m/s p=580.0hPa t=-11.3C h=6.6% 404.000MHz Type=RS41-SGP TxOff=7h55m rdzTTGOsonde
EA1JAY-16T03409702022-12-07 02:00:3443.3097-7.363578154736Clb=-12.0m/s p=565.7hPa t=-13.1C h=7.0% 404.000MHz Type=RS41-SGP TxOff=7h55m rdzTTGOsonde
EA1JAY-15T03409702022-12-07 02:00:3043.3096-7.3636856154782Clb=-12.0m/s p=562.2hPa t=-13.5C h=6.8% 404.000MHz Type=RS41-SGP TxOff=7h55m rdzTTGOsonde
EA1JAY-16T03409702022-12-07 02:00:1543.3091-7.3643843194975Clb=-11.7m/s p=548.2hPa t=-14.6C h=3.5% 404.000MHz Type=RS41-SGP TxOff=7h55m rdzTTGOsonde
EA1JAY-15T03409702022-12-07 02:00:1443.309-7.364528205007Clb=-12.0m/s p=545.9hPa t=-14.8C h=3.5% 404.000MHz Type=RS41-SGP TxOff=7h55m rdzTTGOsonde
EA1JAY-16T03409702022-12-07 01:59:5243.3081-7.3650716245215Clb=-12.6m/s p=531.0hPa t=-16.5C h=12.5% 404.000MHz Type=RS41-SGP TxOff=7h56m rdzTTGOsonde
EA1JAY-15T03409702022-12-07 01:59:4943.3079-7.3651428225252Clb=-12.1m/s p=528.4hPa t=-16.7C h=15.2% 404.000MHz Type=RS41-SGP TxOff=7h56m rdzTTGOsonde
EA1JAY-16T03409702022-12-07 01:59:3143.3071-7.3657130225443Clb=-9.7m/s p=514.9hPa t=-18.6C h=18.8% 404.000MHz Type=RS41-SGP TxOff=7h56m rdzTTGOsonde
EA1JAY-15T03409702022-12-07 01:59:2843.3069-7.3658134195470Clb=-9.1m/s p=512.9hPa t=-18.9C h=18.0% 404.000MHz Type=RS41-SGP TxOff=7h56m rdzTTGOsonde
EA1JAY-16T03409702022-12-07 01:59:1143.306-7.3665537305632Clb=-10.9m/s p=501.9hPa t=-20.3C h=19.7% 404.000MHz Type=RS41-SGP TxOff=7h57m rdzTTGOsonde
EA1JAY-15T03409702022-12-07 01:59:0843.3058-7.3667230315665Clb=-12.5m/s p=499.8hPa t=-20.5C h=20.6% 404.000MHz Type=RS41-SGP TxOff=7h57m rdzTTGOsonde
EA1JAY-16T03409702022-12-07 01:58:5043.3047-7.3679240335884Clb=-12.1m/s p=485.3hPa t=-22.2C h=11.5% 404.000MHz Type=RS41-SGP TxOff=7h57m rdzTTGOsonde
EA1JAY-15T03409702022-12-07 01:58:4843.3045-7.3680641335908Clb=-12.1m/s p=483.8hPa t=-22.4C h=12.6% 404.000MHz Type=RS41-SGP TxOff=7h57m rdzTTGOsonde
EA1JAY-16T03409702022-12-07 01:58:3043.3035-7.369754376125Clb=-13.1m/s p=469.7hPa t=-23.4C h=16.9% 404.000MHz Type=RS41-SGP TxOff=7h57m rdzTTGOsonde
EA1JAY-15T03409702022-12-07 01:58:2743.3033-7.3700152396163Clb=-13.8m/s p=467.3hPa t=-23.6C h=16.9% 404.000MHz Type=RS41-SGP TxOff=7h57m rdzTTGOsonde
EA1JAY-16T03409702022-12-07 01:58:1043.3025-7.3720259396374Clb=-12.8m/s p=454.0hPa t=-25.6C h=39.3% 404.000MHz Type=RS41-SGP TxOff=7h57m rdzTTGOsonde
EA1JAY-15T03409702022-12-07 01:58:0743.3024-7.3723863396411Clb=-12.6m/s p=451.6hPa t=-26.0C h=44.5% 404.000MHz Type=RS41-SGP TxOff=7h57m rdzTTGOsonde
EB4FMT-14T03409702022-12-07 01:58:0043.302-7.3734461356519Clb=-13.2m/s t=-26.8C h=73.2% p=445.0hPa 404.001 MHz Type=RS41-SGP ser=T0340970 Radiosonde auto_rx v1.5.9
EA1JAY-16T03409702022-12-07 01:57:4943.3016-7.3745164376628Clb=-12.6m/s p=438.1hPa t=-27.8C h=83.6% 404.000MHz Type=RS41-SGP TxOff=7h57m rdzTTGOsonde
EA1JAY-15T03409702022-12-07 01:57:4643.3015-7.3748460376667Clb=-13.3m/s p=435.8hPa t=-28.1C h=85.4% 404.000MHz Type=RS41-SGP TxOff=7h57m rdzTTGOsonde
EB4FMT-14T03409702022-12-07 01:57:3043.3006-7.3767354376891Clb=-12.7m/s t=-30.1C h=90.0% p=422.5hPa 404.001 MHz Type=RS41-SGP ser=T0340970 Radiosonde auto_rx v1.5.9
EA1JAY-16T03409702022-12-07 01:57:2843.3006-7.3767355376891Clb=-12.7m/s p=422.5hPa t=-30.1C h=90.0% 404.000MHz Type=RS41-SGP TxOff=7h58m rdzTTGOsonde
EA1JAY-15T03409702022-12-07 01:57:2543.3004-7.3770557376929Clb=-13.3m/s p=420.2hPa t=-30.5C h=88.6% 404.000MHz Type=RS41-SGP TxOff=7h58m rdzTTGOsonde
EA1JAY-16T03409702022-12-07 01:57:0743.2995-7.3789562397148Clb=-11.9m/s p=407.3hPa t=-32.6C h=95.5% 404.000MHz Type=RS41-SGP TxOff=7h58m rdzTTGOsonde
EA1JAY-15T03409702022-12-07 01:57:0443.2994-7.3793170377184Clb=-13.3m/s p=405.3hPa t=-32.4C h=50.7% 404.000MHz Type=RS41-SGP TxOff=7h58m rdzTTGOsonde
EB4FMT-14T03409702022-12-07 01:57:0043.2991-7.3800761417254Clb=-11.9m/s t=-32.5C h=28.5% p=401.2hPa 404.001 MHz Type=RS41-SGP ser=T0340970 Radiosonde auto_rx v1.5.9
EA1JAY-16T03409702022-12-07 01:56:4643.2986-7.3817268467381Clb=-9.9m/s p=393.9hPa t=-33.3C h=29.6% 404.000MHz Type=RS41-SGP TxOff=7h58m rdzTTGOsonde
EA1JAY-15T03409702022-12-07 01:56:4343.2984-7.3821567447414Clb=-10.2m/s p=392.2hPa t=-33.6C h=30.0% 404.000MHz Type=RS41-SGP TxOff=7h59m rdzTTGOsonde
EB4FMT-14T03409702022-12-07 01:56:3043.2978-7.3843469447538Clb=-9.5m/s t=-34.8C h=30.6% p=385.2hPa 404.001 MHz Type=RS41-SGP ser=T0340970 Radiosonde auto_rx v1.5.9
EA1JAY-16T03409702022-12-07 01:56:2643.2977-7.3846473467555Clb=-9.0m/s p=384.3hPa t=-34.9C h=30.1% 404.000MHz Type=RS41-SGP TxOff=7h59m rdzTTGOsonde
EA1JAY-15T03409702022-12-07 01:56:2243.2976-7.3852572487599Clb=-10.6m/s p=382.1hPa t=-35.3C h=29.8% 404.000MHz Type=RS41-SGP TxOff=7h59m rdzTTGOsonde
EA1JAY-16T03409702022-12-07 01:56:0543.297-7.3880675527785Clb=-8.6m/s p=371.7hPa t=-36.5C h=12.0% 404.000MHz Type=RS41-SGP TxOff=7h59m rdzTTGOsonde
EA1JAY-15T03409702022-12-07 01:56:0243.2969-7.3885674527805Clb=-7.0m/s p=370.6hPa t=-36.5C h=11.5% 404.000MHz Type=RS41-SGP TxOff=7h59m rdzTTGOsonde
EB4FMT-14T03409702022-12-07 01:56:0043.2967-7.3892573507843Clb=-7.9m/s t=-36.9C h=11.5% p=368.6hPa 404.001 MHz Type=RS41-SGP ser=T0340970 Radiosonde auto_rx v1.5.9
EA1JAY-16T03409702022-12-07 01:55:4543.2963-7.3915878577978Clb=-11.3m/s p=361.7hPa t=-37.7C h=10.1% 404.000MHz Type=RS41-SGP TxOff=8h0m rdzTTGOsonde
EA1JAY-15T03409702022-12-07 01:55:4143.2962-7.3923679578021Clb=-9.5m/s p=359.5hPa t=-38.1C h=11.3% 404.000MHz Type=RS41-SGP TxOff=8h0m rdzTTGOsonde
EB4FMT-14T03409702022-12-07 01:55:3043.2958-7.394973568151Clb=-12.8m/s t=-39.1C h=14.8% p=352.8hPa 404.001 MHz Type=RS41-SGP ser=T0340970 Radiosonde auto_rx v1.5.9
EA1JAY-16T03409702022-12-07 01:55:2443.2957-7.3956577568199Clb=-11.6m/s p=350.3hPa t=-39.5C h=14.2% 404.000MHz Type=RS41-SGP TxOff=8h0m rdzTTGOsonde
EA1JAY-15T03409702022-12-07 01:55:2143.2956-7.396276568234Clb=-13.0m/s p=348.6hPa t=-39.7C h=14.0% 404.000MHz Type=RS41-SGP TxOff=8h0m rdzTTGOsonde
EA1JAY-16T03409702022-12-07 01:55:0343.2946-7.3994965598432Clb=-9.7m/s p=338.3hPa t=-41.3C h=15.1% 404.000MHz Type=RS41-SGP TxOff=8h1m rdzTTGOsonde
EA1JAY-15T03409702022-12-07 01:55:0143.2945-7.3998565598454Clb=-11.2m/s p=337.4hPa t=-41.5C h=16.0% 404.000MHz Type=RS41-SGP TxOff=8h1m rdzTTGOsonde
EB4FMT-14T03409702022-12-07 01:55:0043.2943-7.400462578483Clb=-13.8m/s t=-41.7C h=16.9% p=336.0hPa 404.001 MHz Type=RS41-SGP ser=T0340970 Radiosonde auto_rx v1.5.9
EA1JAY-16T03409702022-12-07 01:54:4243.2932-7.4031956578709Clb=-11.1m/s p=324.9hPa t=-43.6C h=29.7% 404.000MHz Type=RS41-SGP TxOff=8h1m rdzTTGOsonde
EA1JAY-15T03409702022-12-07 01:54:4143.2931-7.4033555578718Clb=-8.8m/s p=324.3hPa t=-43.7C h=31.5% 404.000MHz Type=RS41-SGP TxOff=8h1m rdzTTGOsonde
EB4FMT-14T03409702022-12-07 01:54:3043.292-7.4054458548869Clb=-14.6m/s t=-44.9C h=32.2% p=317.4hPa 404.001 MHz Type=RS41-SGP ser=T0340970 Radiosonde auto_rx v1.5.9
EA1JAY-16T03409702022-12-07 01:54:2143.2914-7.4066261618946Clb=-12.0m/s p=313.7hPa t=-45.4C h=33.3% 404.000MHz Type=RS41-SGP TxOff=8h1m rdzTTGOsonde
EA1JAY-15T03409702022-12-07 01:54:2043.2914-7.406861618957Clb=-12.7m/s p=313.1hPa t=-45.5C h=33.3% 404.000MHz Type=RS41-SGP TxOff=8h1m rdzTTGOsonde
EA1JAY-16T03409702022-12-07 01:54:0043.2898-7.4105158639161Clb=-13.4m/s p=303.7hPa t=-47.4C h=46.4% 404.000MHz Type=RS41-SGP TxOff=8h2m rdzTTGOsonde
EA1JAY-15T03409702022-12-07 01:53:5943.2897-7.4106958639174Clb=-13.0m/s p=303.1hPa t=-47.5C h=47.0% 404.000MHz Type=RS41-SGP TxOff=8h2m rdzTTGOsonde
EA1JAY-16T03409702022-12-07 01:53:4043.2881-7.4143961699402Clb=-12.2m/s p=292.9hPa t=-49.7C h=55.8% 404.000MHz Type=RS41-SGP TxOff=8h2m rdzTTGOsonde
EA1JAY-15T03409702022-12-07 01:53:3943.288-7.4145960679414Clb=-12.4m/s p=292.4hPa t=-49.8C h=55.8% 404.000MHz Type=RS41-SGP TxOff=8h2m rdzTTGOsonde
EB4FMT-14T03409702022-12-07 01:53:3043.2871-7.4168557699552Clb=-10.6m/s t=-50.9C h=52.1% p=286.1hPa 404.001 MHz Type=RS41-SGP ser=T0340970 Radiosonde auto_rx v1.5.9
EA1JAY-16T03409702022-12-07 01:53:1943.2862-7.4186456729645Clb=-11.6m/s p=282.0hPa t=-51.7C h=45.3% 404.000MHz Type=RS41-SGP TxOff=8h3m rdzTTGOsonde
EA1JAY-15T03409702022-12-07 01:53:1843.2861-7.4188458729656Clb=-11.0m/s p=281.5hPa t=-51.8C h=44.2% 404.000MHz Type=RS41-SGP TxOff=8h3m rdzTTGOsonde
EB4FMT-14T03409702022-12-07 01:53:0043.284-7.4230853789897Clb=-14.3m/s t=-53.5C h=35.8% p=271.4hPa 404.001 MHz Type=RS41-SGP ser=T0340970 Radiosonde auto_rx v1.5.9
EA1JAY-16T03409702022-12-07 01:52:5843.284-7.4230854789897Clb=-14.3m/s p=271.4hPa t=-53.5C h=35.8% 404.000MHz Type=RS41-SGP TxOff=8h3m rdzTTGOsonde
EA1JAY-15T03409702022-12-07 01:52:5743.2839-7.423356809911Clb=-13.7m/s p=270.8hPa t=-53.6C h=35.9% 404.000MHz Type=RS41-SGP TxOff=8h3m rdzTTGOsonde
EA1JAY-16T03409702022-12-07 01:52:3843.2818-7.42741607810151Clb=-12.5m/s p=260.8hPa t=-55.5C h=30.8% 404.000MHz Type=RS41-SGP TxOff=8h3m rdzTTGOsonde
EA1JAY-15T03409702022-12-07 01:52:3743.2817-7.42763597610163Clb=-11.2m/s p=260.3hPa t=-55.6C h=30.6% 404.000MHz Type=RS41-SGP TxOff=8h3m rdzTTGOsonde
EB4FMT-14T03409702022-12-07 01:52:3043.2808-7.42961667010278Clb=-11.7m/s t=-56.3C h=31.0% p=255.6hPa 404.001 MHz Type=RS41-SGP ser=T0340970 Radiosonde auto_rx v1.5.9
EA1JAY-16T03409702022-12-07 01:52:1843.28-7.43214697410440Clb=-15.4m/s p=249.3hPa t=-57.2C h=26.1% 404.000MHz Type=RS41-SGP TxOff=8h3m rdzTTGOsonde
EA1JAY-15T03409702022-12-07 01:52:1543.2799-7.43259687410472Clb=-16.0m/s p=248.1hPa t=-57.5C h=25.1% 404.000MHz Type=RS41-SGP TxOff=8h3m rdzTTGOsonde
EB4FMT-14T03409702022-12-07 01:52:0043.2786-7.43662667410737Clb=-15.3m/s t=-59.1C h=16.5% p=237.8hPa 404.001 MHz Type=RS41-SGP ser=T0340970 Radiosonde auto_rx v1.5.9
EA1JAY-16T03409702022-12-07 01:51:5743.2785-7.43685657410752Clb=-16.0m/s p=237.3hPa t=-59.2C h=16.2% 404.000MHz Type=RS41-SGP TxOff=8h3m rdzTTGOsonde
EA1JAY-15T03409702022-12-07 01:51:5543.2783-7.43731677410784Clb=-16.1m/s p=236.0hPa t=-59.4C h=15.9% 404.000MHz Type=RS41-SGP TxOff=8h3m rdzTTGOsonde
EA1JAY-16T03409702022-12-07 01:51:3643.2772-7.44174787011049Clb=-10.9m/s p=226.1hPa t=-60.6C h=14.0% 404.000MHz Type=RS41-SGP TxOff=8h4m rdzTTGOsonde
EA1JAY-15T03409702022-12-07 01:51:3343.277-7.44246797211083Clb=-11.7m/s p=224.8hPa t=-60.7C h=13.7% 404.000MHz Type=RS41-SGP TxOff=8h4m rdzTTGOsonde
EB4FMT-14T03409702022-12-07 01:51:3043.2768-7.44367777411142Clb=-11.4m/s t=-61.1C h=13.5% p=222.7hPa 404.001 MHz Type=RS41-SGP ser=T0340970 Radiosonde auto_rx v1.5.9
EA1JAY-16T03409702022-12-07 01:51:1643.2763-7.44668767811288Clb=-15.3m/s p=217.7hPa t=-61.6C h=11.6% 404.000MHz Type=RS41-SGP TxOff=8h4m rdzTTGOsonde
EA1JAY-15T03409702022-12-07 01:51:1243.2761-7.44767777411343Clb=-12.1m/s p=215.6hPa t=-61.7C h=11.6% 404.000MHz Type=RS41-SGP TxOff=8h4m rdzTTGOsonde
EB4FMT-14T03409702022-12-07 01:51:0043.2755-7.45107756511505Clb=-15.9m/s t=-62.2C h=9.9% p=210.1hPa 404.001 MHz Type=RS41-SGP ser=T0340970 Radiosonde auto_rx v1.5.9
EA1JAY-16T03409702022-12-07 01:50:5643.2754-7.45151776711536Clb=-16.5m/s p=209.1hPa t=-62.5C h=9.3% 404.000MHz Type=RS41-SGP TxOff=8h4m rdzTTGOsonde
EA1JAY-15T03409702022-12-07 01:50:5143.2752-7.45255746311617Clb=-15.7m/s p=206.4hPa t=-62.6C h=7.2% 404.000MHz Type=RS41-SGP TxOff=8h4m rdzTTGOsonde
EA1JAY-16T03409702022-12-07 01:50:3543.2745-7.45591796311850Clb=-13.9m/s p=198.7hPa t=-59.3C h=4.6% 404.000MHz Type=RS41-SGP TxOff=8h5m rdzTTGOsonde
EA1JAY-15T03409702022-12-07 01:50:3043.2744-7.4569785611929Clb=-16.5m/s p=196.4hPa t=-59.5C h=4.4% 404.000MHz Type=RS41-SGP TxOff=8h5m rdzTTGOsonde
EA1JAY-16T03409702022-12-07 01:50:1543.2739-7.45979805912128Clb=-12.6m/s p=190.2hPa t=-59.4C h=4.4% 404.000MHz Type=RS41-SGP TxOff=8h5m rdzTTGOsonde
EA1JAY-15T03409702022-12-07 01:50:0943.2737-7.46095785712205Clb=-14.4m/s p=187.9hPa t=-58.9C h=3.9% 404.000MHz Type=RS41-SGP TxOff=8h5m rdzTTGOsonde
EB4FMT-14T03409702022-12-07 01:50:0043.2733-7.46311725912386Clb=-15.2m/s t=-58.6C h=3.5% p=182.6hPa 404.001 MHz Type=RS41-SGP ser=T0340970 Radiosonde auto_rx v1.5.9
EA1JAY-16T03409702022-12-07 01:49:5443.2731-7.46393756712447Clb=-13.2m/s p=180.8hPa t=-58.4C h=3.5% 404.000MHz Type=RS41-SGP TxOff=8h6m rdzTTGOsonde
EA1JAY-15T03409702022-12-07 01:49:4943.2729-7.46502756912518Clb=-15.3m/s p=178.8hPa t=-58.1C h=3.3% 404.000MHz Type=RS41-SGP TxOff=8h6m rdzTTGOsonde
EA1JAY-16T03409702022-12-07 01:49:3443.272-7.46858767412746Clb=-15.0m/s p=172.4hPa t=-58.3C h=3.1% 404.000MHz Type=RS41-SGP TxOff=8h6m rdzTTGOsonde
EB4FMT-14T03409702022-12-07 01:49:3043.2718-7.47004796912830Clb=-14.9m/s t=-58.2C h=2.8% p=170.2hPa 404.001 MHz Type=RS41-SGP ser=T0340970 Radiosonde auto_rx v1.5.9
EA1JAY-15T03409702022-12-07 01:49:2843.2718-7.47004816912830Clb=-14.9m/s p=170.2hPa t=-58.2C h=2.8% 404.000MHz Type=RS41-SGP TxOff=8h6m rdzTTGOsonde
EA1JAY-16T03409702022-12-07 01:49:1443.2716-7.47303905713031Clb=-15.9m/s p=164.7hPa t=-57.1C h=2.6% 404.000MHz Type=RS41-SGP TxOff=8h6m rdzTTGOsonde
EA1JAY-15T03409702022-12-07 01:49:0643.2716-7.47456945413162Clb=-17.9m/s p=161.4hPa t=-56.9C h=2.5% 404.000MHz Type=RS41-SGP TxOff=8h7m rdzTTGOsonde
EB4FMT-14T03409702022-12-07 01:49:0043.2717-7.47595925013299Clb=-17.2m/s t=-56.8C h=2.2% p=158.0hPa 404.001 MHz Type=RS41-SGP ser=T0340970 Radiosonde auto_rx v1.5.9
EA1JAY-16T03409702022-12-07 01:48:5343.2717-7.47679904613382Clb=-16.4m/s p=155.9hPa t=-57.0C h=2.2% 404.000MHz Type=RS41-SGP TxOff=8h7m rdzTTGOsonde
EA1JAY-15T03409702022-12-07 01:48:4643.2717-7.4779924413483Clb=-14.6m/s p=153.4hPa t=-57.4C h=2.2% 404.000MHz Type=RS41-SGP TxOff=8h7m rdzTTGOsonde
EA1JAY-16T03409702022-12-07 01:48:3243.2717-7.47982733913680Clb=-15.2m/s p=148.7hPa t=-58.0C h=2.3% 404.000MHz Type=RS41-SGP TxOff=8h7m rdzTTGOsonde
EB4FMT-14T03409702022-12-07 01:48:3043.2715-7.48033733713732Clb=-13.1m/s t=-58.3C h=2.3% p=147.4hPa 404.001 MHz Type=RS41-SGP ser=T0340970 Radiosonde auto_rx v1.5.9
EA1JAY-15T03409702022-12-07 01:48:2543.2714-7.48071654113774Clb=-14.7m/s p=146.5hPa t=-58.4C h=2.4% 404.000MHz Type=RS41-SGP TxOff=8h7m rdzTTGOsonde
EA1JAY-16T03409702022-12-07 01:48:1143.2706-7.48272685413962Clb=-13.0m/s p=142.1hPa t=-58.7C h=2.4% 404.000MHz Type=RS41-SGP TxOff=8h8m rdzTTGOsonde
EA1JAY-15T03409702022-12-07 01:48:0343.2703-7.48414755914065Clb=-12.8m/s p=139.8hPa t=-57.5C h=2.2% 404.000MHz Type=RS41-SGP TxOff=8h8m rdzTTGOsonde
EB4FMT-14T03409702022-12-07 01:48:0043.2701-7.4851765414127Clb=-13.8m/s t=-57.5C h=2.2% p=138.5hPa 404.001 MHz Type=RS41-SGP ser=T0340970 Radiosonde auto_rx v1.5.9
EA1JAY-16T03409702022-12-07 01:47:5143.27-7.48637885214233Clb=-18.1m/s p=136.3hPa t=-58.0C h=2.2% 404.000MHz Type=RS41-SGP TxOff=8h8m rdzTTGOsonde
EA1JAY-15T03409702022-12-07 01:47:4343.2698-7.4877855014349Clb=-16.6m/s p=133.8hPa t=-58.6C h=2.4% 404.000MHz Type=RS41-SGP TxOff=8h8m rdzTTGOsonde
EA1JAY-16T03409702022-12-07 01:47:3143.2696-7.48968834614520Clb=-13.2m/s p=130.0hPa t=-59.2C h=2.5% 404.000MHz Type=RS41-SGP TxOff=8h8m rdzTTGOsonde
EB4FMT-14T03409702022-12-07 01:47:3043.2696-7.49014794414558Clb=-12.0m/s t=-59.4C h=2.5% p=129.3hPa 404.001 MHz Type=RS41-SGP ser=T0340970 Radiosonde auto_rx v1.5.9
EA1JAY-15T03409702022-12-07 01:47:2243.2695-7.49101813914632Clb=-11.2m/s p=127.7hPa t=-60.0C h=2.6% 404.000MHz Type=RS41-SGP TxOff=8h8m rdzTTGOsonde
EA1JAY-16T03409702022-12-07 01:47:1143.2693-7.49242774114763Clb=-10.5m/s p=125.1hPa t=-60.1C h=2.7% 404.000MHz Type=RS41-SGP TxOff=8h8m rdzTTGOsonde
EA1JAY-15T03409702022-12-07 01:47:0143.269-7.49393825014897Clb=-13.6m/s p=122.5hPa t=-60.4C h=2.7% 404.000MHz Type=RS41-SGP TxOff=8h8m rdzTTGOsonde
EB4FMT-14T03409702022-12-07 01:47:0043.2689-7.49443824814935Clb=-12.8m/s t=-60.5C h=2.6% p=121.7hPa 404.001 MHz Type=RS41-SGP ser=T0340970 Radiosonde auto_rx v1.5.9
EA1JAY-16T03409702022-12-07 01:46:4943.2689-7.49593944615055Clb=-13.5m/s p=119.4hPa t=-61.0C h=2.6% 404.000MHz Type=RS41-SGP TxOff=8h8m rdzTTGOsonde
EA1JAY-15T03409702022-12-07 01:46:4043.2691-7.49726973915164Clb=-11.2m/s p=117.3hPa t=-61.1C h=2.7% 404.000MHz Type=RS41-SGP TxOff=8h8m rdzTTGOsonde
EA1JAY-16T03409702022-12-07 01:46:2943.2692-7.49859893515287Clb=-12.9m/s p=115.0hPa t=-61.6C h=2.7% 404.000MHz Type=RS41-SGP TxOff=8h9m rdzTTGOsonde
EA1JAY-15T03409702022-12-07 01:46:1943.2691-7.49976773715413Clb=-12.7m/s p=112.7hPa t=-62.2C h=2.8% 404.000MHz Type=RS41-SGP rdzTTGOsonde
EA1JAY-16T03409702022-12-07 01:46:0943.2688-7.50103793715524Clb=-13.2m/s p=110.7hPa t=-62.4C h=2.9% 404.000MHz Type=RS41-SGP TxOff=8h9m rdzTTGOsonde
EB4FMT-14T03409702022-12-07 01:46:0043.2686-7.50214723015666Clb=-12.0m/s t=-61.8C h=2.9% p=108.1hPa 404.001 MHz Type=RS41-SGP ser=T0340970 Radiosonde auto_rx v1.5.9
EA1JAY-15T03409702022-12-07 01:45:5843.2686-7.50214743015666Clb=-12.0m/s p=108.1hPa t=-61.8C h=2.9% 404.000MHz Type=RS41-SGP rdzTTGOsonde
EA1JAY-16T03409702022-12-07 01:45:4843.2682-7.50311523315782Clb=-11.2m/s p=106.1hPa t=-61.4C h=2.7% 404.000MHz Type=RS41-SGP TxOff=8h9m rdzTTGOsonde
EA1JAY-15T03409702022-12-07 01:45:3843.2677-7.50417673715892Clb=-10.7m/s p=104.3hPa t=-61.3C h=2.7% 404.000MHz Type=RS41-SGP TxOff=8h10m rdzTTGOsonde
EB4FMT-14T03409702022-12-07 01:45:3043.2675-7.50536803916006Clb=-10.5m/s t=-61.2C h=2.6% p=102.4hPa 404.001 MHz Type=RS41-SGP ser=T0340970 Radiosonde auto_rx v1.5.9
EA1JAY-16T03409702022-12-07 01:45:2743.2675-7.50549833916016Clb=-9.8m/s p=102.2hPa t=-61.2C h=2.6% 404.000MHz Type=RS41-SGP TxOff=8h10m rdzTTGOsonde
EA1JAY-15T03409702022-12-07 01:45:1843.2674-7.50658943316104Clb=-11.3m/s p=100.7hPa t=-61.4C h=2.6% 404.000MHz Type=RS41-SGP TxOff=8h10m rdzTTGOsonde
EA1JAY-16T03409702022-12-07 01:45:0743.2675-7.50761022016237Clb=-12.1m/s p=98.7hPa t=-61.9C h=2.7% 404.000MHz Type=RS41-SGP TxOff=8h10m rdzTTGOsonde
EB4FMT-14T03409702022-12-07 01:45:0043.2675-7.50801641316358Clb=-14.5m/s t=-62.2C h=2.5% p=96.8hPa 404.001 MHz Type=RS41-SGP ser=T0340970 Radiosonde auto_rx v1.5.9
EA1JAY-15T03409702022-12-07 01:44:5743.2675-7.50805591516371Clb=-12.8m/s p=96.5hPa t=-62.3C h=2.6% 404.000MHz Type=RS41-SGP TxOff=8h10m rdzTTGOsonde
EA1JAY-16T03409702022-12-07 01:44:4743.2672-7.50865652216474Clb=-9.9m/s p=94.9hPa t=-62.4C h=2.7% 404.000MHz Type=RS41-SGP TxOff=8h11m rdzTTGOsonde
EA1JAY-15T03409702022-12-07 01:44:3643.2668-7.50959623016588Clb=-10.7m/s p=93.2hPa t=-62.6C h=2.6% 404.000MHz Type=RS41-SGP TxOff=8h11m rdzTTGOsonde
EB4FMT-14T03409702022-12-07 01:44:3043.2665-7.51029672816667Clb=-9.3m/s t=-62.6C h=2.5% p=92.0hPa 404.001 MHz Type=RS41-SGP ser=T0340970 Radiosonde auto_rx v1.5.9
EA1JAY-16T03409702022-12-07 01:44:2643.2665-7.51048753016682Clb=-5.7m/s p=91.7hPa t=-62.5C h=2.6% 404.000MHz Type=RS41-SGP TxOff=8h11m rdzTTGOsonde
EA1JAY-15T03409702022-12-07 01:44:1543.2663-7.51149753316746Clb=-10.8m/s p=90.8hPa t=-62.3C h=2.5% 404.000MHz Type=RS41-SGP TxOff=8h11m rdzTTGOsonde
EA1JAY-16T03409702022-12-07 01:44:0643.266-7.5125753516834Clb=-9.7m/s p=89.5hPa t=-62.1C h=2.5% 404.000MHz Type=RS41-SGP TxOff=8h11m rdzTTGOsonde
EB4FMT-14T03409702022-12-07 01:44:0043.266-7.513441063116935Clb=-13.6m/s t=-62.3C h=2.3% p=88.1hPa 404.001 MHz Type=RS41-SGP ser=T0340970 Radiosonde auto_rx v1.5.9
EA1JAY-15T03409702022-12-07 01:43:5543.2661-7.513751143316975Clb=-13.3m/s p=87.6hPa t=-62.1C h=2.3% 404.000MHz Type=RS41-SGP TxOff=8h12m rdzTTGOsonde
EA1JAY-16T03409702022-12-07 01:43:4543.2664-7.514621142217082Clb=-8.1m/s p=86.0hPa t=-61.9C h=2.3% 404.000MHz Type=RS41-SGP rdzTTGOsonde
EA1JAY-15T03409702022-12-07 01:43:3443.2664-7.51545892217176Clb=-8.8m/s p=84.7hPa t=-62.3C h=2.3% 404.000MHz Type=RS41-SGP TxOff=8h12m rdzTTGOsonde
EB4FMT-14T03409702022-12-07 01:43:3043.2664-7.51593812417240Clb=-9.6m/s t=-62.6C h=2.3% p=83.8hPa 404.001 MHz Type=RS41-SGP ser=T0340970 Radiosonde auto_rx v1.5.9
EA1JAY-16T03409702022-12-07 01:43:2543.2663-7.51621683117276Clb=-13.4m/s p=83.4hPa t=-62.6C h=2.3% 404.000MHz Type=RS41-SGP rdzTTGOsonde
EA1JAY-15T03409702022-12-07 01:43:1343.266-7.51754783717390Clb=-8.5m/s p=81.8hPa t=-62.0C h=2.2% 404.000MHz Type=RS41-SGP TxOff=8h12m rdzTTGOsonde
EA1JAY-16T03409702022-12-07 01:43:0543.2658-7.51851853317463Clb=-8.5m/s p=80.8hPa t=-62.0C h=2.2% 404.000MHz Type=RS41-SGP TxOff=8h13m rdzTTGOsonde
EB4FMT-14T03409702022-12-07 01:43:0043.2659-7.51921942617543Clb=-14.7m/s t=-62.1C h=2.1% p=79.9hPa 404.001 MHz Type=RS41-SGP ser=T0340970 Radiosonde auto_rx v1.5.9
EA1JAY-15T03409702022-12-07 01:42:5343.2659-7.51969833117609Clb=-12.2m/s p=79.0hPa t=-62.2C h=2.3% 404.000MHz Type=RS41-SGP TxOff=8h13m rdzTTGOsonde
EA1JAY-16T03409702022-12-07 01:42:4443.2659-7.520781063517691Clb=-7.2m/s p=77.9hPa t=-61.5C h=2.1% 404.000MHz Type=RS41-SGP TxOff=8h13m rdzTTGOsonde
EA1JAY-15T03409702022-12-07 01:42:3343.2661-7.52181212417796Clb=-9.4m/s p=76.6hPa t=-60.0C h=1.9% 404.000MHz Type=RS41-SGP TxOff=8h13m rdzTTGOsonde
EB4FMT-14T03409702022-12-07 01:42:3043.2663-7.522161322417847Clb=-10.4m/s t=-60.3C h=1.9% p=76.0hPa 404.001 MHz Type=RS41-SGP ser=T0340970 Radiosonde auto_rx v1.5.9
EA1JAY-16T03409702022-12-07 01:42:2343.2665-7.522431412217898Clb=-10.1m/s p=75.4hPa t=-60.7C h=1.9% 404.000MHz Type=RS41-SGP TxOff=8h13m rdzTTGOsonde
EA1JAY-15T03409702022-12-07 01:42:1243.2669-7.52281651718002Clb=-7.3m/s p=74.1hPa t=-61.3C h=2.0% 404.000MHz Type=RS41-SGP TxOff=8h14m rdzTTGOsonde
EA1JAY-16T03409702022-12-07 01:42:0243.2672-7.522831961118073Clb=-6.5m/s p=73.2hPa t=-61.6C h=2.0% 404.000MHz Type=RS41-SGP TxOff=8h14m rdzTTGOsonde
EB4FMT-14T03409702022-12-07 01:42:0043.2673-7.522762041318098Clb=-6.5m/s t=-61.6C h=1.9% p=72.9hPa 404.001 MHz Type=RS41-SGP ser=T0340970 Radiosonde auto_rx v1.5.9
EA1JAY-15T03409702022-12-07 01:41:5043.2675-7.52258211918150Clb=-6.2m/s p=72.3hPa t=-61.6C h=2.0% 404.000MHz Type=RS41-SGP TxOff=8h14m rdzTTGOsonde
EA1JAY-16T03409702022-12-07 01:41:4243.2676-7.52239260918202Clb=-6.5m/s p=71.7hPa t=-61.7C h=2.0% 404.000MHz Type=RS41-SGP TxOff=8h14m rdzTTGOsonde
EA1JAY-15T03409702022-12-07 01:41:2943.2677-7.52199256618286Clb=-6.4m/s p=70.8hPa t=-61.9C h=2.0% 404.000MHz Type=RS41-SGP TxOff=8h14m rdzTTGOsonde
EA1JAY-16T03409702022-12-07 01:41:2143.2677-7.52184320718339Clb=-6.6m/s p=70.2hPa t=-61.9C h=2.0% 404.000MHz Type=RS41-SGP TxOff=8h14m rdzTTGOsonde
EA1JAY-16T03409702022-12-07 01:41:0043.2676-7.52197113918478Clb=-7.1m/s p=68.6hPa t=-61.8C h=1.9% 404.000MHz Type=RS41-SGP TxOff=8h14m rdzTTGOsonde
EA1JAY-15T03409702022-12-07 01:40:4943.2676-7.52232781118558Clb=-7.4m/s p=67.7hPa t=-61.9C h=2.0% 404.000MHz Type=RS41-SGP TxOff=8h14m rdzTTGOsonde
EA1JAY-16T03409702022-12-07 01:40:3943.2677-7.52247344418635Clb=-7.8m/s p=66.9hPa t=-61.4C h=1.9% 404.000MHz Type=RS41-SGP TxOff=8h14m rdzTTGOsonde
EB4FMT-14T03409702022-12-07 01:40:3043.2677-7.522522261718724Clb=-8.4m/s t=-61.6C h=1.8% p=65.9hPa 404.001 MHz Type=RS41-SGP ser=T0340970 Radiosonde auto_rx v1.5.9
EA1JAY-15T03409702022-12-07 01:40:2543.2678-7.522362981718750Clb=-8.1m/s p=65.7hPa t=-61.8C h=1.8% 404.000MHz Type=RS41-SGP rdzTTGOsonde
EA1JAY-16T03409702022-12-07 01:40:1843.2676-7.522471301718807Clb=-8.4m/s p=65.1hPa t=-61.7C h=1.8% 404.000MHz Type=RS41-SGP TxOff=8h15m rdzTTGOsonde
EB4FMT-14T03409702022-12-07 01:40:0043.2677-7.52273264218982Clb=-9.0m/s t=-62.7C h=1.9% p=63.3hPa 404.001 MHz Type=RS41-SGP ser=T0340970 Radiosonde auto_rx v1.5.9
EA1JAY-16T03409702022-12-07 01:39:5843.2677-7.52273266418982Clb=-9.0m/s p=63.3hPa t=-62.7C h=2.0% 404.000MHz Type=RS41-SGP TxOff=8h15m rdzTTGOsonde
EA1JAY-15T03409702022-12-07 01:39:5143.2678-7.522941412219046Clb=-9.3m/s p=62.6hPa t=-62.3C h=1.9% 404.000MHz Type=RS41-SGP rdzTTGOsonde
EA1JAY-16T03409702022-12-07 01:39:3843.268-7.523071021119174Clb=-9.4m/s p=61.3hPa t=-61.6C h=1.8% 404.000MHz Type=RS41-SGP TxOff=8h16m rdzTTGOsonde
EB4FMT-14T03409702022-12-07 01:39:3043.2683-7.52305305919269Clb=-9.7m/s t=-61.6C h=1.6% p=60.4hPa 404.001 MHz Type=RS41-SGP ser=T0340970 Radiosonde auto_rx v1.5.9
EA1JAY-15T03409702022-12-07 01:39:2743.2682-7.52303330919278Clb=-9.0m/s p=60.3hPa t=-61.6C h=1.7% 404.000MHz Type=RS41-SGP TxOff=8h16m rdzTTGOsonde
EA1JAY-16T03409702022-12-07 01:39:1843.2684-7.523241481719364Clb=-9.7m/s p=59.5hPa t=-61.7C h=1.7% 404.000MHz Type=RS41-SGP TxOff=8h16m rdzTTGOsonde
EA1JAY-15T03409702022-12-07 01:39:0743.2685-7.523691311319475Clb=-12.0m/s p=58.4hPa t=-61.7C h=1.8% 404.000MHz Type=RS41-SGP TxOff=8h16m rdzTTGOsonde
EB4FMT-14T03409702022-12-07 01:39:0043.2685-7.52383412419578Clb=-11.3m/s t=-61.5C h=1.7% p=57.4hPa 404.001 MHz Type=RS41-SGP ser=T0340970 Radiosonde auto_rx v1.5.9
EA1JAY-16T03409702022-12-07 01:38:5843.2685-7.52383422619578Clb=-11.3m/s p=57.4hPa t=-61.5C h=1.8% 404.000MHz Type=RS41-SGP TxOff=8h16m rdzTTGOsonde
EA4EKH-11T03409702022-12-07 01:38:4943.2687-7.52463188419710Clb=-15.9m/s t=-60.5C h=-1.0% p=56.2hPa 404.001 MHz Type=RS41-SGP ser=T0340970 Radiosonde
EA1JAY-15T03409702022-12-07 01:38:3943.2685-7.52505814319823Clb=-13.5m/s p=55.2hPa t=-60.2C h=1.5% 404.000MHz Type=RS41-SGP TxOff=8h17m rdzTTGOsonde
EA1JAY-16T03409702022-12-07 01:38:3743.2685-7.52537994819848Clb=-11.5m/s p=54.9hPa t=-60.4C h=1.5% 404.000MHz Type=RS41-SGP TxOff=8h17m rdzTTGOsonde
EB4FMT-14T03409702022-12-07 01:38:3043.269-7.52602207919955Clb=-11.4m/s t=-60.7C h=1.5% p=54.0hPa 404.001 MHz Type=RS41-SGP ser=T0340970 Radiosonde auto_rx v1.5.9
EA1JAY-15T03409702022-12-07 01:38:1843.2689-7.526751125020074Clb=-11.9m/s p=53.0hPa t=-60.5C h=1.5% 404.000MHz Type=RS41-SGP TxOff=8h17m rdzTTGOsonde
EA4EKH-11T03409702022-12-07 01:38:1743.269-7.527041345020099Clb=-13.7m/s t=-60.8C h=-1.0% p=52.8hPa 404.001 MHz Type=RS41-SGP ser=T0340970 Radiosonde
EA1JAY-16T03409702022-12-07 01:38:1643.269-7.527041355020099Clb=-13.7m/s p=52.8hPa t=-60.8C h=1.5% 404.000MHz Type=RS41-SGP TxOff=8h17m rdzTTGOsonde
EA1JAY-15T03409702022-12-07 01:37:5743.27-7.527641615020323Clb=-10.9m/s p=50.9hPa t=-62.0C h=1.7% 404.000MHz Type=RS41-SGP TxOff=8h18m rdzTTGOsonde
EA1JAY-16T03409702022-12-07 01:37:5543.2703-7.527671885220346Clb=-11.5m/s p=50.7hPa t=-62.0C h=1.6% 404.000MHz Type=RS41-SGP TxOff=8h18m rdzTTGOsonde
EA4EKH-11T03409702022-12-07 01:37:4643.2706-7.527581253720490Clb=-11.9m/s t=-62.1C h=-1.0% p=-1.0hPa 404.001 MHz Type=RS41-SGP ser=T0340970 Radiosonde
EA1JAY-15T03409702022-12-07 01:37:3443.2714-7.527692332420601Clb=-12.4m/s p=48.7hPa t=-61.5C h=1.6% 404.000MHz Type=RS41-SGP TxOff=8h18m rdzTTGOsonde
EB4FMT-14T03409702022-12-07 01:37:3043.2717-7.527621643120741Clb=-13.5m/s t=-61.7C h=1.5% p=47.6hPa 404.001 MHz Type=RS41-SGP ser=T0340970 Radiosonde auto_rx v1.5.9
EA1JAY-16T03409702022-12-07 01:37:1443.2727-7.527941755220853Clb=-12.6m/s p=46.7hPa t=-62.0C h=1.6% 404.000MHz Type=RS41-SGP TxOff=8h18m rdzTTGOsonde
EA1JAY-15T03409702022-12-07 01:37:1243.2729-7.527961814620875Clb=-11.7m/s p=46.5hPa t=-62.0C h=1.7% 404.000MHz Type=RS41-SGP TxOff=8h19m rdzTTGOsonde
EB4FMT-14T03409702022-12-07 01:37:0043.2743-7.528052044321056Clb=-12.3m/s t=-61.3C h=1.4% p=45.2hPa 404.001 MHz Type=RS41-SGP ser=T0340970 Radiosonde auto_rx v1.5.9
EA1JAY-16T03409702022-12-07 01:36:5343.2746-7.527762131921128Clb=-12.8m/s p=44.7hPa t=-61.3C h=1.5% 404.000MHz Type=RS41-SGP TxOff=8h19m rdzTTGOsonde
EA1JAY-15T03409702022-12-07 01:36:5143.2747-7.527731771921153Clb=-13.3m/s p=44.5hPa t=-61.3C h=1.5% 404.000MHz Type=RS41-SGP TxOff=8h19m rdzTTGOsonde
EA4EKH-11T03409702022-12-07 01:36:4443.2753-7.52771932421255Clb=-12.8m/s t=-273.0C h=-1.0% p=-1.0hPa 404.001 MHz Type=RS41-SGP ser=T0340970 Radiosonde
CT7AUS-11T03409702022-12-07 01:36:4143.2757-7.527592042821333Clb=-12.9m/s t=-62.6C h=1.6% p=43.2hPa 404.000 MHz Type=RS41-SGP ser=T0340970 Radiosonde
EA1JAY-16T03409702022-12-07 01:36:3343.2759-7.527352322821384Clb=-12.5m/s p=42.9hPa t=-62.7C 404.000MHz Type=RS41-SGP TxOff=8h19m rdzTTGOsonde
EA1JAY-15T03409702022-12-07 01:36:3143.276-7.527212352421409Clb=-12.4m/s p=42.7hPa t=-62.8C h=1.7% 404.000MHz Type=RS41-SGP TxOff=8h19m rdzTTGOsonde
EB4FMT-14T03409702022-12-07 01:36:3043.276-7.527042311721447Clb=-12.6m/s t=-63.0C h=1.7% p=42.5hPa 404.001 MHz Type=RS41-SGP ser=T0340970 Radiosonde auto_rx v1.5.9
EA1JAY-16T03409702022-12-07 01:36:1343.2769-7.526671973121644Clb=-13.4m/s p=41.1hPa t=-61.7C 404.000MHz Type=RS41-SGP TxOff=8h20m rdzTTGOsonde
EA1JAY-15T03409702022-12-07 01:36:1043.2771-7.526592012421682Clb=-12.7m/s p=40.9hPa t=-61.5C h=1.5% 404.000MHz Type=RS41-SGP rdzTTGOsonde
EB4FMT-14T03409702022-12-07 01:36:0043.2776-7.526192101921840Clb=-13.1m/s t=-61.5C h=1.5% p=39.8hPa 404.001 MHz Type=RS41-SGP ser=T0340970 Radiosonde auto_rx v1.5.9
EA1JAY-16T03409702022-12-07 01:35:5243.2778-7.525962341921919Clb=-13.6m/s p=39.3hPa t=-61.3C 404.000MHz Type=RS41-SGP TxOff=8h20m rdzTTGOsonde
EA1JAY-15T03409702022-12-07 01:35:4943.2779-7.525792532021960Clb=-13.1m/s p=39.1hPa t=-61.3C h=1.5% 404.000MHz Type=RS41-SGP rdzTTGOsonde
CT7AUS-11T03409702022-12-07 01:35:3943.2781-7.525012461922116Clb=-12.7m/s t=-60.7C h=1.4% p=38.1hPa 404.000 MHz Type=RS41-SGP ser=T0340970 Radiosonde
EA1JAY-16T03409702022-12-07 01:35:3243.2781-7.52478292922180Clb=-13.1m/s p=37.7hPa 404.000MHz Type=RS41-SGP TxOff=8h20m rdzTTGOsonde
EB4FMT-14T03409702022-12-07 01:35:3043.278-7.5247311422232Clb=-12.8m/s t=-60.9C h=1.4% p=37.4hPa 404.001 MHz Type=RS41-SGP ser=T0340970 Radiosonde auto_rx v1.5.9
EA1JAY-15T03409702022-12-07 01:35:2843.278-7.5247313622232Clb=-12.8m/s p=37.4hPa t=-60.9C h=1.5% 404.000MHz Type=RS41-SGP rdzTTGOsonde
EA1JAY-16T03409702022-12-07 01:35:1143.2784-7.52471132722452Clb=-13.0m/s 404.000MHz Type=RS41 rdzTTGOsonde
EA1JAY-15T03409702022-12-07 01:35:0843.2784-7.52475155422491Clb=-13.1m/s p=35.8hPa t=-60.5C h=1.4% 404.000MHz Type=RS41-SGP rdzTTGOsonde
CT7AUS-11T03409702022-12-07 01:35:0743.2784-7.52476198622517Clb=-13.0m/s t=-60.5C h=1.3% p=35.7hPa 404.000 MHz Type=RS41-SGP ser=T0340970 Radiosonde
EB4FMT-14T03409702022-12-07 01:35:0043.2786-7.52461212722623Clb=-13.1m/s t=-61.0C h=1.4% p=35.1hPa 404.001 MHz Type=RS41-SGP ser=T0340970 Radiosonde auto_rx v1.5.9
EA1JAY-15T03409702022-12-07 01:34:3843.2786-7.5250992622890Clb=-14.0m/s p=33.6hPa t=-61.0C h=1.4% 404.000MHz Type=RS41-SGP rdzTTGOsonde
CT7AUS-11T03409702022-12-07 01:34:3643.2786-7.52521011522931Clb=-13.5m/s t=-60.9C h=1.4% p=33.4hPa 404.000 MHz Type=RS41-SGP ser=T0340970 Radiosonde
EB4FMT-14T03409702022-12-07 01:34:3043.2788-7.525521391123025Clb=-13.6m/s t=-60.9C h=1.4% p=32.9hPa 404.001 MHz Type=RS41-SGP ser=T0340970 Radiosonde auto_rx v1.5.9
EA1JAY-15T03409702022-12-07 01:34:1643.2789-7.52568159723193Clb=-14.1m/s p=32.0hPa t=-60.8C h=1.4% 404.000MHz Type=RS41-SGP rdzTTGOsonde
CT7AUS-11T03409702022-12-07 01:34:0543.2792-7.52566173923363Clb=-14.1m/s t=-61.0C h=1.3% p=31.1hPa 404.000 MHz Type=RS41-SGP ser=T0340970 Radiosonde
EB4FMT-14T03409702022-12-07 01:34:0043.2793-7.525791201123449Clb=-14.0m/s t=-61.0C h=1.4% p=30.7hPa 404.001 MHz Type=RS41-SGP ser=T0340970 Radiosonde auto_rx v1.5.9
EA1JAY-15T03409702022-12-07 01:33:5443.2794-7.525951091523506Clb=-14.5m/s p=30.4hPa t=-61.1C h=1.4% 404.000MHz Type=RS41-SGP rdzTTGOsonde
CT7AUS-11T03409702022-12-07 01:33:3443.2797-7.52691302223807Clb=-14.3m/s t=-62.2C h=1.4% p=28.9hPa 404.000 MHz Type=RS41-SGP ser=T0340970 Radiosonde
EA1JAY-15T03409702022-12-07 01:33:2943.2799-7.527141473123865Clb=-14.2m/s p=28.7hPa t=-62.4C h=1.5% 404.000MHz Type=RS41-SGP rdzTTGOsonde
EA1JAY-15T03409702022-12-07 01:33:0843.2808-7.527991341124165Clb=-13.7m/s p=27.3hPa t=-62.7C h=1.4% 404.000MHz Type=RS41-SGP rdzTTGOsonde
CT7AUS-11T03409702022-12-07 01:33:0343.281-7.528221462224250Clb=-14.4m/s t=-63.1C h=1.4% p=26.9hPa 404.000 MHz Type=RS41-SGP ser=T0340970 Radiosonde
EB4FMT-14T03409702022-12-07 01:33:0043.2812-7.528321721924307Clb=-14.6m/s t=-63.4C h=1.4% p=26.7hPa 404.001 MHz Type=RS41-SGP ser=T0340970 Radiosonde auto_rx v1.5.9
CT7ABP-10T03409702022-12-07 01:32:5343.2815-7.52831651124423Clb=-14.5m/s t=-63.5C h=1.5% p=26.1hPa 404.000 MHz Type=RS41-SGP ser=T0340970 Radiosonde
EA1JAY-15T03409702022-12-07 01:32:4743.2816-7.528361622024466Clb=-14.5m/s p=26.0hPa t=-63.7C h=1.6% 404.000MHz Type=RS41-SGP rdzTTGOsonde
CT7AUS-11T03409702022-12-07 01:32:3243.2827-7.528291972624697Clb=-14.5m/s t=-63.1C h=1.5% p=25.0hPa 404.000 MHz Type=RS41-SGP ser=T0340970 Radiosonde
EB4FMT-14T03409702022-12-07 01:32:3043.283-7.528192013024741Clb=-14.6m/s t=-62.8C h=1.4% p=24.8hPa 404.001 MHz Type=RS41-SGP ser=T0340970 Radiosonde auto_rx v1.5.9
EA1JAY-15T03409702022-12-07 01:32:2643.2831-7.52812033324771Clb=-14.4m/s p=24.7hPa t=-62.7C 404.000MHz Type=RS41-SGP rdzTTGOsonde
EA1JAY-15T03409702022-12-07 01:32:0543.2845-7.527731771725083Clb=-15.1m/s p=23.5hPa t=-63.8C 404.000MHz Type=RS41-SGP rdzTTGOsonde
CT7AUS-11T03409702022-12-07 01:32:0143.2847-7.527831592225158Clb=-14.9m/s t=-63.5C h=1.5% p=23.2hPa 404.000 MHz Type=RS41-SGP ser=T0340970 Radiosonde
CT7ABP-10T03409702022-12-07 01:31:5243.2852-7.528251403525293Clb=-15.4m/s t=-63.4C h=1.5% p=22.7hPa 404.000 MHz Type=RS41-SGP ser=T0340970 Radiosonde
EA1JAY-15T03409702022-12-07 01:31:4343.286-7.528891575025413Clb=-14.9m/s p=22.2hPa t=-63.5C 404.000MHz Type=RS41-SGP rdzTTGOsonde
CT7AUS-11T03409702022-12-07 01:31:3043.2871-7.529911483325627Clb=-15.6m/s t=-62.7C h=1.4% p=21.5hPa 404.000 MHz Type=RS41-SGP ser=T0340970 Radiosonde
CT7AUS-11T03409702022-12-07 01:30:5943.2893-7.531681543126110Clb=-15.9m/s t=-62.2C h=1.3% p=19.8hPa 404.000 MHz Type=RS41-SGP ser=T0340970 Radiosonde
CT7AUS-11T03409702022-12-07 01:30:2843.2914-7.533281502826599Clb=-15.6m/s t=-62.3C h=1.3% p=18.3hPa 404.000 MHz Type=RS41-SGP ser=T0340970 Radiosonde
EB4FMT-14T03409702022-12-07 01:30:0043.2929-7.53481242827153Clb=-19.8m/s t=-63.3C h=1.4% p=16.7hPa 404.001 MHz Type=RS41-SGP ser=T0340970 Radiosonde auto_rx v1.5.9
CT7AUS-11T03409702022-12-07 01:29:5743.2931-7.5351422627213Clb=-20.4m/s t=-63.1C h=1.4% p=16.5hPa 404.000 MHz Type=RS41-SGP ser=T0340970 Radiosonde
CT7ABP-10T03409702022-12-07 01:29:5043.2935-7.535341443527318Clb=-16.4m/s t=-62.4C h=-1.0% p=16.2hPa 404.000 MHz Type=RS41 ser=T0340970 Radiosonde
EA1JAY-15T03409702022-12-07 01:29:4243.2939-7.53591333327409Clb=-12.7m/s 404.000MHz Type=RS41-SGP TxOff=8h25m rdzTTGOsonde
EB4FMT-14T03409702022-12-07 01:29:3043.295-7.537661225427593Clb=-14.4m/s t=-62.9C h=1.5% p=15.5hPa 404.001 MHz Type=RS41-SGP ser=T0340970 Radiosonde auto_rx v1.5.9
CT7AUS-11T03409702022-12-07 01:29:2643.2953-7.538281275727641Clb=-12.1m/s t=-62.9C h=1.5% p=15.4hPa 404.000 MHz Type=RS41-SGP ser=T0340970 Radiosonde
EA1JAY-15T03409702022-12-07 01:29:2043.2956-7.53891346127700Clb=-16.1m/s 404.000MHz Type=RS41-SGP rdzTTGOsonde
EB4FMT-14T03409702022-12-07 01:29:0043.2975-7.542511216328142Clb=-21.0m/s t=-61.2C h=1.3% p=14.2hPa 404.001 MHz Type=RS41-SGP ser=T0340970 Radiosonde auto_rx v1.5.9
EA1JAY-15T03409702022-12-07 01:28:5843.2975-7.542511226528142Clb=-21.0m/s 404.000MHz Type=RS41-SGP rdzTTGOsonde
CT7AUS-11T03409702022-12-07 01:28:5543.2979-7.543591117228242Clb=-16.3m/s t=-60.9C h=1.2% p=13.9hPa 404.000 MHz Type=RS41-SGP ser=T0340970 Radiosonde
CT7ABP-10T03409702022-12-07 01:28:4943.2989-7.545561337028389Clb=-19.6m/s t=-273.0C h=-1.0% p=-1.0hPa 404.000 MHz Type=RS41 ser=T0340970 Radiosonde
EA1JAY-15T03409702022-12-07 01:28:3143.2997-7.547451244628652Clb=-17.1m/s 404.000MHz Type=RS41-SGP rdzTTGOsonde
EB4FMT-14T03409702022-12-07 01:28:3043.2999-7.547821243928714Clb=-21.9m/s t=-61.0C h=1.2% p=12.9hPa 404.001 MHz Type=RS41-SGP ser=T0340970 Radiosonde auto_rx v1.5.9
CT7AUS-11T03409702022-12-07 01:28:2443.3002-7.548611125928830Clb=-16.3m/s t=-61.0C h=1.3% p=12.7hPa 404.000 MHz Type=RS41-SGP ser=T0340970 Radiosonde
EA1JAY-15T03409702022-12-07 01:28:0143.3031-7.5528715012029155Clb=-16.0m/s 404.000MHz Type=RS41-SGP rdzTTGOsonde
EB4FMT-14T03409702022-12-07 01:28:0043.3041-7.553661394629251Clb=-29.4m/s t=-60.1C h=1.2% p=11.8hPa 404.001 MHz Type=RS41-SGP ser=T0340970 Radiosonde auto_rx v1.5.9
EA4EKH-11T03409702022-12-07 01:27:5643.3043-7.5541204129345Clb=-31.3m/s t=-60.2C h=1.2% p=11.6hPa 404.001 MHz Type=RS41-SGP ser=T0340970 Radiosonde
CT7AUS-11T03409702022-12-07 01:27:5343.3045-7.55431296329411Clb=-34.0m/s t=-60.2C h=1.2% p=11.6hPa 404.000 MHz Type=RS41-SGP ser=T0340970 Radiosonde
CT7ABP-10T03409702022-12-07 01:27:4843.3053-7.5555214010729547Clb=-22.5m/s t=-273.0C h=-1.0% p=-1.0hPa 404.000 MHz Type=RS41 ser=T0340970 Radiosonde
EB4FMT-14T03409702022-12-07 01:27:3043.307-7.558831277629910Clb=-20.5m/s t=-59.5C h=1.2% p=10.6hPa 404.001 MHz Type=RS41-SGP ser=T0340970 Radiosonde auto_rx v1.5.9
EA4EKH-11T03409702022-12-07 01:27:2543.3074-7.559311513329985Clb=-21.6m/s t=-59.2C h=1.1% p=10.4hPa 404.001 MHz Type=RS41-SGP ser=T0340970 Radiosonde
CT7AUS-11T03409702022-12-07 01:27:2143.3076-7.559741065630072Clb=-21.4m/s t=-59.5C h=1.1% p=10.3hPa 404.000 MHz Type=RS41-SGP ser=T0340970 Radiosonde
EB4FMT-14T03409702022-12-07 01:27:0043.3101-7.564941279430577Clb=-18.6m/s t=-58.6C h=1.2% p=9.5hPa 404.001 MHz Type=RS41-SGP ser=T0340970 Radiosonde auto_rx v1.5.9
EA4EKH-11T03409702022-12-07 01:26:5443.3108-7.5663811910430685Clb=-24.8m/s t=-57.6C h=1.1% p=9.3hPa 404.001 MHz Type=RS41-SGP ser=T0340970 Radiosonde
CT7AUS-11T03409702022-12-07 01:26:5143.3113-7.5676212210430783Clb=-22.4m/s t=-57.0C h=1.0% p=9.2hPa 404.000 MHz Type=RS41-SGP ser=T0340970 Radiosonde
EB4FMT-14T03409702022-12-07 01:26:3043.3144-7.573981239631197Clb=-23.7m/s t=-56.8C h=1.0% p=8.6hPa 404.001 MHz Type=RS41-SGP ser=T0340970 Radiosonde auto_rx v1.5.9
EA4EKH-11T03409702022-12-07 01:26:2343.3152-7.5756111910031336Clb=-22.1m/s t=-56.7C h=1.0% p=8.4hPa 404.001 MHz Type=RS41-SGP ser=T0340970 Radiosonde
CT7AUS-11T03409702022-12-07 01:26:1943.3157-7.5768911610731424Clb=-24.7m/s t=-56.3C h=1.0% p=8.2hPa 404.000 MHz Type=RS41-SGP ser=T0340970 Radiosonde
EB4FMT-14T03409702022-12-07 01:26:0043.3178-7.5853210911731947Clb=-21.0m/s t=-55.9C h=0.9% p=7.6hPa 404.001 MHz Type=RS41-SGP ser=T0340970 Radiosonde auto_rx v1.5.9
EA4EKH-11T03409702022-12-07 01:25:5243.3185-7.5871212311332065Clb=-24.2m/s t=-55.8C h=0.9% p=7.4hPa 404.001 MHz Type=RS41-SGP ser=T0340970 Radiosonde
CT7AUS-11T03409702022-12-07 01:25:4843.319-7.58831168732144Clb=-20.5m/s t=-56.2C h=1.0% p=7.3hPa 404.000 MHz Type=RS41-SGP ser=T0340970 Radiosonde
EB4FMT-14T03409702022-12-07 01:25:3043.3217-7.5960711214632532Clb=-17.2m/s t=-54.7C h=1.0% p=6.8hPa 404.001 MHz Type=RS41-SGP ser=T0340970 Radiosonde auto_rx v1.5.9
EA4EKH-11T03409702022-12-07 01:25:2143.3229-7.5994412014832668Clb=-20.3m/s t=-52.9C h=0.9% p=6.7hPa 404.001 MHz Type=RS41-SGP ser=T0340970 Radiosonde
CT7AUS-11T03409702022-12-07 01:25:1743.3236-7.6011211513732754Clb=-22.3m/s t=-52.7C h=0.8% p=6.6hPa 404.000 MHz Type=RS41-SGP ser=T0340970 Radiosonde
EA1JAY-15T03409702022-12-07 01:25:0143.3261-7.6082311616133029Clb=5.0m/s p=6.3hPa t=-51.8C 404.000MHz Type=RS41-SGP rdzTTGOsonde
EB4FMT-14T03409702022-12-07 01:25:0043.3268-7.6108110916133006Clb=3.4m/s t=-51.8C h=0.7% p=6.3hPa 404.001 MHz Type=RS41-SGP ser=T0340970 Radiosonde auto_rx v1.5.9
EA4EKH-11T03409702022-12-07 01:24:5043.3281-7.6142111815432974Clb=4.4m/s t=-52.0C h=0.8% p=6.3hPa 404.001 MHz Type=RS41-SGP ser=T0340970 Radiosonde
CT7AUS-11T03409702022-12-07 01:24:4643.3286-7.6161610515632953Clb=4.6m/s t=-52.2C h=0.7% p=6.4hPa 404.000 MHz Type=RS41-SGP ser=T0340970 Radiosonde
EA1JAY-15T03409702022-12-07 01:24:4043.3293-7.6187811716532931Clb=4.8m/s p=6.4hPa t=-52.3C 404.000MHz Type=RS41-SGP rdzTTGOsonde
EB4FMT-14T03409702022-12-07 01:24:3043.3312-7.6243411416132874Clb=4.0m/s t=-52.6C h=0.8% p=6.5hPa 404.001 MHz Type=RS41-SGP ser=T0340970 Radiosonde auto_rx v1.5.9
EA1JAY-15T03409702022-12-07 01:24:2043.3326-7.6278112114132836Clb=4.0m/s p=6.5hPa t=-52.7C 404.000MHz Type=RS41-SGP rdzTTGOsonde
EA4EKH-11T03409702022-12-07 01:24:1943.3331-7.6291611515732821Clb=5.0m/s t=-52.7C h=0.8% p=6.5hPa 404.001 MHz Type=RS41-SGP ser=T0340970 Radiosonde
CT7AUS-11T03409702022-12-07 01:24:1543.3339-7.631611014132797Clb=5.5m/s t=-52.7C h=0.8% p=6.5hPa 404.000 MHz Type=RS41-SGP ser=T0340970 Radiosonde
EA1JAY-15T03409702022-12-07 01:23:5843.336-7.6382511013532732Clb=4.9m/s p=6.6hPa t=-53.1C 404.000MHz Type=RS41-SGP rdzTTGOsonde
EA4EKH-11T03409702022-12-07 01:23:4843.3381-7.6438711614132677Clb=4.9m/s t=-53.0C h=0.7% p=6.7hPa 404.001 MHz Type=RS41-SGP ser=T0340970 Radiosonde
CT7AUS-11T03409702022-12-07 01:23:4443.3387-7.645611514432658Clb=4.9m/s t=-53.1C h=0.8% p=6.7hPa 404.000 MHz Type=RS41-SGP ser=T0340970 Radiosonde
EA1JAY-15T03409702022-12-07 01:23:3643.3397-7.6485111615932629Clb=5.0m/s p=6.7hPa t=-53.6C 404.000MHz Type=RS41-SGP rdzTTGOsonde
EB4FMT-14T03409702022-12-07 01:23:3043.341-7.6523611315632592Clb=4.1m/s t=-54.2C h=0.8% p=6.8hPa 404.001 MHz Type=RS41-SGP ser=T0340970 Radiosonde auto_rx v1.5.9
EA4EKH-11T03409702022-12-07 01:23:1743.3428-7.6583811515232532Clb=4.6m/s t=-55.0C h=0.8% p=6.8hPa 404.001 MHz Type=RS41-SGP ser=T0340970 Radiosonde
CT7AUS-11T03409702022-12-07 01:23:1343.3433-7.6601911314132511Clb=4.4m/s t=-55.4C h=0.9% p=6.9hPa 404.000 MHz Type=RS41-SGP ser=T0340970 Radiosonde
EA1JAY-15T03409702022-12-07 01:23:1143.3434-7.6601911414332511Clb=4.4m/s p=6.9hPa t=-55.4C 404.000MHz Type=RS41-SGP rdzTTGOsonde
EB4FMT-14T03409702022-12-07 01:23:0043.3454-7.6660711614632450Clb=4.7m/s t=-56.0C h=0.9% p=6.9hPa 404.001 MHz Type=RS41-SGP ser=T0340970 Radiosonde auto_rx v1.5.9
EA4EKH-11T03409702022-12-07 01:22:4643.3476-7.6720911814432389Clb=3.7m/s t=-56.0C h=0.9% p=7.0hPa 404.001 MHz Type=RS41-SGP ser=T0340970 Radiosonde
CT7AUS-11T03409702022-12-07 01:22:4243.3481-7.6736311611132368Clb=4.7m/s t=-56.0C h=0.9% p=7.0hPa 404.000 MHz Type=RS41-SGP ser=T0340970 Radiosonde
EB4FMT-14T03409702022-12-07 01:22:3043.3499-7.6783811611732314Clb=4.5m/s t=-55.9C h=0.9% p=7.1hPa 404.001 MHz Type=RS41-SGP ser=T0340970 Radiosonde auto_rx v1.5.9
EA4EKH-11T03409702022-12-07 01:22:1543.3519-7.6840312011132246Clb=4.2m/s t=-56.3C h=0.9% p=7.2hPa 404.001 MHz Type=RS41-SGP ser=T0340970 Radiosonde
CT7AUS-11T03409702022-12-07 01:22:1143.3523-7.684961159832232Clb=5.2m/s t=-56.3C h=0.9% p=7.2hPa 404.000 MHz Type=RS41-SGP ser=T0340970 Radiosonde
EB4FMT-14T03409702022-12-07 01:22:0043.3536-7.689171179132176Clb=5.2m/s t=-56.4C h=1.0% p=7.2hPa 404.001 MHz Type=RS41-SGP ser=T0340970 Radiosonde auto_rx v1.5.9
EA4EKH-11T03409702022-12-07 01:21:4443.3555-7.694151139132107Clb=4.2m/s t=-56.0C h=0.9% p=7.3hPa 404.001 MHz Type=RS41-SGP ser=T0340970 Radiosonde
CT7AUS-11T03409702022-12-07 01:21:4043.3558-7.6951211812032092Clb=5.3m/s t=-56.0C h=0.9% p=7.4hPa 404.000 MHz Type=RS41-SGP ser=T0340970 Radiosonde
EA1JAY-15T03409702022-12-07 01:21:3443.3565-7.6969511510632070Clb=4.9m/s t=-56.3C 404.000MHz Type=RS41-SGP rdzTTGOsonde
EB4FMT-14T03409702022-12-07 01:21:3043.3571-7.6987811310732041Clb=4.8m/s t=-56.4C h=0.9% p=7.4hPa 404.001 MHz Type=RS41-SGP ser=T0340970 Radiosonde auto_rx v1.5.9
EA4EKH-11T03409702022-12-07 01:21:1343.3591-7.7050410812431963Clb=5.5m/s t=-56.1C h=-1.0% p=7.5hPa 404.001 MHz Type=RS41 ser=T0340970 Radiosonde
EA1JAY-15T03409702022-12-07 01:21:1143.3591-7.7050410912431963Clb=5.5m/s 404.000MHz Type=RS41-SGP rdzTTGOsonde
CT7AUS-11T03409702022-12-07 01:21:0943.3594-7.7065810911531944Clb=4.1m/s t=-56.1C h=0.9% p=7.5hPa 404.000 MHz Type=RS41-SGP ser=T0340970 Radiosonde
EB4FMT-14T03409702022-12-07 01:21:0043.3606-7.7100211012231903Clb=4.2m/s t=-56.3C h=0.9% p=7.6hPa 404.001 MHz Type=RS41-SGP ser=T0340970 Radiosonde auto_rx v1.5.9
EA1JAY-15T03409702022-12-07 01:20:4443.3622-7.7157411113031837Clb=4.6m/s 404.000MHz Type=RS41 rdzTTGOsonde
EA4EKH-11T03409702022-12-07 01:20:4243.3625-7.7174610012431820Clb=4.8m/s t=-56.6C h=-1.0% p=-1.0hPa 404.001 MHz Type=RS41 ser=T0340970 Radiosonde
CT7AUS-11T03409702022-12-07 01:20:3943.3633-7.7208211513131776Clb=3.4m/s t=-56.5C h=1.0% p=7.7hPa 404.000 MHz Type=RS41-SGP ser=T0340970 Radiosonde
EB4FMT-14T03409702022-12-07 01:20:3043.3637-7.7220210411931764Clb=5.2m/s t=-56.4C h=1.0% p=7.8hPa 404.001 MHz Type=RS41-SGP ser=T0340970 Radiosonde auto_rx v1.5.9
EA1JAY-15T03409702022-12-07 01:20:2443.3638-7.723539511131743Clb=4.5m/s 404.000MHz Type=RS41 rdzTTGOsonde
EA4EKH-11T03409702022-12-07 01:20:1143.365-7.7295910212031661Clb=5.0m/s t=-273.0C h=-1.0% p=-1.0hPa 404.001 MHz Type=RS41 ser=T0340970 Radiosonde
CT7AUS-11T03409702022-12-07 01:20:0743.3652-7.7307910411531646Clb=5.5m/s t=-56.3C h=0.9% p=7.9hPa 404.000 MHz Type=RS41-SGP ser=T0340970 Radiosonde
EA1JAY-15T03409702022-12-07 01:20:0443.3652-7.7311610611131640Clb=5.6m/s 404.000MHz Type=RS41 rdzTTGOsonde
EB4FMT-14T03409702022-12-07 01:20:0043.3658-7.7332110910931609Clb=4.7m/s t=-56.9C h=1.0% p=8.0hPa 404.001 MHz Type=RS41-SGP ser=T0340970 Radiosonde auto_rx v1.5.9
EA1JAY-15T03409702022-12-07 01:19:4343.3669-7.738731078731527Clb=5.0m/s 404.000MHz Type=RS41 rdzTTGOsonde
EA4EKH-11T03409702022-12-07 01:19:3943.3673-7.7404311011931501Clb=5.8m/s t=-273.0C h=-1.0% p=-1.0hPa 404.001 MHz Type=RS41 ser=T0340970 Radiosonde
EB4FMT-14T03409702022-12-07 01:19:3043.3683-7.743421129331448Clb=5.6m/s t=-57.1C h=1.0% p=8.2hPa 404.001 MHz Type=RS41-SGP ser=T0340970 Radiosonde auto_rx v1.5.9
EA1JAY-15T03409702022-12-07 01:19:1843.3695-7.746451138931393Clb=5.2m/s 404.000MHz Type=RS41 rdzTTGOsonde
CT7AUS-11T03409702022-12-07 01:19:0543.3718-7.751612510231299Clb=5.2m/s t=-57.0C h=1.0% p=8.4hPa 404.000 MHz Type=RS41-SGP ser=T0340970 Radiosonde
EB4FMT-14T03409702022-12-07 01:19:0043.372-7.7521812310231287Clb=5.9m/s t=-56.9C h=1.0% p=8.4hPa 404.001 MHz Type=RS41-SGP ser=T0340970 Radiosonde auto_rx v1.5.9
EA1JAY-15T03409702022-12-07 01:18:5743.3722-7.7524712310231282Clb=5.2m/s 404.000MHz Type=RS41 rdzTTGOsonde
EB4FMT-14T03409702022-12-07 01:18:3043.3766-7.7611513011331135Clb=5.0m/s t=-56.7C h=1.0% p=8.6hPa 404.001 MHz Type=RS41-SGP ser=T0340970 Radiosonde auto_rx v1.5.9
CT7AUS-11T03409702022-12-07 01:18:0343.3809-7.7699312710031000Clb=4.3m/s t=-57.2C h=1.0% p=8.8hPa 404.000 MHz Type=RS41-SGP ser=T0340970 Radiosonde
EB4FMT-14T03409702022-12-07 01:18:0043.3811-7.7702112510230995Clb=4.1m/s t=-57.2C h=1.0% p=8.8hPa 404.001 MHz Type=RS41-SGP ser=T0340970 Radiosonde auto_rx v1.5.9
CT7AUS-11T03409702022-12-07 01:17:3143.3854-7.7782613010430873Clb=4.7m/s t=-57.6C h=1.0% p=9.0hPa 404.000 MHz Type=RS41-SGP ser=T0340970 Radiosonde
EB4FMT-14T03409702022-12-07 01:17:3043.3857-7.7787913010030863Clb=4.4m/s t=-57.6C h=1.0% p=9.0hPa 404.001 MHz Type=RS41-SGP ser=T0340970 Radiosonde auto_rx v1.5.9
EB4FMT-14T03409702022-12-07 01:17:0043.3899-7.787911319330734Clb=4.4m/s t=-59.1C h=1.1% p=9.2hPa 404.001 MHz Type=RS41-SGP ser=T0340970 Radiosonde auto_rx v1.5.9
CT7AUS-11T03409702022-12-07 01:16:3143.394-7.795361347630606Clb=5.2m/s t=-60.2C h=1.2% p=9.4hPa 404.000 MHz Type=RS41-SGP ser=T0340970 Radiosonde
EB4FMT-14T03409702022-12-07 01:16:3043.394-7.795361347630606Clb=5.2m/s t=-60.2C h=1.2% p=9.4hPa 404.001 MHz Type=RS41-SGP ser=T0340970 Radiosonde auto_rx v1.5.9
EB4FMT-14T03409702022-12-07 01:16:0043.3978-7.801631318130471Clb=4.9m/s t=-60.1C h=1.1% p=9.6hPa 404.001 MHz Type=RS41-SGP ser=T0340970 Radiosonde auto_rx v1.5.9
CT7AUS-11T03409702022-12-07 01:15:5943.398-7.801831358330466Clb=4.4m/s t=-60.1C h=1.1% p=9.6hPa 404.000 MHz Type=RS41-SGP ser=T0340970 Radiosonde
EB4FMT-14T03409702022-12-07 01:15:3543.402-7.809141308930333Clb=5.3m/s t=-61.0C h=1.2% p=9.8hPa 404.001 MHz Type=RS41-SGP ser=T0340970 Radiosonde auto_rx v1.5.9
CT7AUS-11T03409702022-12-07 01:15:3243.4023-7.809611309330323Clb=5.0m/s t=-61.0C h=1.2% p=9.8hPa 404.000 MHz Type=RS41-SGP ser=T0340970 Radiosonde
EB4FMT-14T03409702022-12-07 01:15:1043.4056-7.815231297630186Clb=5.5m/s t=-60.5C h=1.2% p=10.1hPa 404.001 MHz Type=RS41-SGP ser=T0340970 Radiosonde auto_rx v1.5.9
CT7AUS-11T03409702022-12-07 01:15:0743.406-7.815861207030171Clb=4.6m/s t=-60.6C h=1.2% p=10.1hPa 404.000 MHz Type=RS41-SGP ser=T0340970 Radiosonde
EB4FMT-14T03409702022-12-07 01:14:4543.4081-7.820711336930042Clb=5.5m/s t=-60.8C h=1.2% p=10.3hPa 404.001 MHz Type=RS41-SGP ser=T0340970 Radiosonde auto_rx v1.5.9
CT7AUS-11T03409702022-12-07 01:14:4143.4086-7.821551197630022Clb=5.0m/s t=-60.9C h=1.2% p=10.4hPa 404.000 MHz Type=RS41-SGP ser=T0340970 Radiosonde
EB4FMT-14T03409702022-12-07 01:14:2143.4109-7.826581306329888Clb=4.6m/s t=-60.6C h=1.2% p=10.6hPa 404.001 MHz Type=RS41-SGP ser=T0340970 Radiosonde auto_rx v1.5.9
CT7AUS-11T03409702022-12-07 01:14:1543.4115-7.827671226329857Clb=5.8m/s t=-60.7C h=1.2% p=10.6hPa 404.000 MHz Type=RS41-SGP ser=T0340970 Radiosonde
EB4FMT-14T03409702022-12-07 01:13:5343.4138-7.831631295629736Clb=4.8m/s t=-61.0C h=1.2% p=10.9hPa 404.001 MHz Type=RS41-SGP ser=T0340970 Radiosonde auto_rx v1.5.9
CT7AUS-11T03409702022-12-07 01:13:4743.4143-7.832371274829707Clb=4.5m/s t=-61.2C h=1.2% p=10.9hPa 404.000 MHz Type=RS41-SGP ser=T0340970 Radiosonde
EB4FMT-14T03409702022-12-07 01:13:2643.4163-7.836281326129589Clb=5.7m/s t=-61.2C h=1.2% p=11.1hPa 404.001 MHz Type=RS41-SGP ser=T0340970 Radiosonde auto_rx v1.5.9
CT7AUS-11T03409702022-12-07 01:13:1843.4169-7.837211286329554Clb=4.3m/s t=-61.2C h=1.2% p=11.2hPa 404.000 MHz Type=RS41-SGP ser=T0340970 Radiosonde
EB4FMT-14T03409702022-12-07 01:12:5843.4196-7.841261417629441Clb=5.5m/s t=-61.2C h=1.2% p=11.4hPa 404.001 MHz Type=RS41-SGP ser=T0340970 Radiosonde auto_rx v1.5.9
CT7AUS-11T03409702022-12-07 01:12:4843.4208-7.842521367029397Clb=5.6m/s t=-61.2C h=1.3% p=11.5hPa 404.000 MHz Type=RS41-SGP ser=T0340970 Radiosonde
EB4FMT-14T03409702022-12-07 01:12:2843.4241-7.845851439329298Clb=4.3m/s t=-60.8C h=1.2% p=11.7hPa 404.001 MHz Type=RS41-SGP ser=T0340970 Radiosonde auto_rx v1.5.9
CT7AUS-11T03409702022-12-07 01:12:1843.4257-7.847511388929252Clb=4.2m/s t=-60.5C h=1.2% p=11.8hPa 404.000 MHz Type=RS41-SGP ser=T0340970 Radiosonde
EB4FMT-14T03409702022-12-07 01:11:5743.4287-7.851321378029160Clb=5.2m/s t=-61.1C h=1.2% p=11.9hPa 404.001 MHz Type=RS41-SGP ser=T0340970 Radiosonde auto_rx v1.5.9
CT7AUS-11T03409702022-12-07 01:11:4843.4303-7.853451318029110Clb=4.8m/s t=-61.7C h=1.3% p=12.1hPa 404.000 MHz Type=RS41-SGP ser=T0340970 Radiosonde
EB4FMT-14T03409702022-12-07 01:11:2843.4324-7.857351195929020Clb=4.8m/s t=-62.0C h=1.3% p=12.2hPa 404.001 MHz Type=RS41-SGP ser=T0340970 Radiosonde auto_rx v1.5.9
CT7AUS-11T03409702022-12-07 01:11:1643.4334-7.859751256128962Clb=3.9m/s t=-62.2C h=1.3% p=12.4hPa 404.000 MHz Type=RS41-SGP ser=T0340970 Radiosonde
EB4FMT-14T03409702022-12-07 01:11:0043.4346-7.86291234628877Clb=4.4m/s t=-62.3C h=1.3% p=12.5hPa 404.001 MHz Type=RS41-SGP ser=T0340970 Radiosonde auto_rx v1.5.9
CT7AUS-11T03409702022-12-07 01:10:4643.4354-7.865081203928799Clb=5.3m/s t=-62.6C h=1.4% p=12.7hPa 404.000 MHz Type=RS41-SGP ser=T0340970 Radiosonde
EB4FMT-14T03409702022-12-07 01:10:2943.4363-7.867021165628735Clb=4.6m/s t=-62.4C h=1.4% p=12.8hPa 404.001 MHz Type=RS41-SGP ser=T0340970 Radiosonde auto_rx v1.5.9
EB4FMT-14T03409702022-12-07 01:09:5843.4387-7.871381276328588Clb=5.5m/s t=-62.0C h=1.3% p=13.2hPa 404.001 MHz Type=RS41-SGP ser=T0340970 Radiosonde auto_rx v1.5.9
EB4FMT-14T03409702022-12-07 01:09:2743.4416-7.877021156728436Clb=4.6m/s t=-61.1C h=1.2% p=13.5hPa 404.001 MHz Type=RS41-SGP ser=T0340970 Radiosonde auto_rx v1.5.9
CT7AUS-11T03409702022-12-07 01:09:0943.443-7.880531077228354Clb=5.3m/s t=-61.2C h=1.2% p=13.7hPa 404.000 MHz Type=RS41-SGP ser=T0340970 Radiosonde
EB4FMT-14T03409702022-12-07 01:08:5443.4439-7.883821097428282Clb=4.5m/s t=-61.7C h=1.3% p=13.8hPa 404.001 MHz Type=RS41-SGP ser=T0340970 Radiosonde auto_rx v1.5.9
EB4FMT-14T03409702022-12-07 01:08:2343.446-7.889761185428131Clb=5.8m/s t=-61.5C h=1.3% p=14.2hPa 404.001 MHz Type=RS41-SGP ser=T0340970 Radiosonde auto_rx v1.5.9
CT7AUS-11T03409702022-12-07 01:08:0543.4475-7.892531315428034Clb=4.6m/s t=-61.5C h=1.3% p=14.4hPa 404.000 MHz Type=RS41-SGP ser=T0340970 Radiosonde
EB4FMT-14T03409702022-12-07 01:07:5343.4484-7.894031225027979Clb=4.4m/s t=-61.3C h=1.3% p=14.6hPa 404.001 MHz Type=RS41-SGP ser=T0340970 Radiosonde auto_rx v1.5.9
CT7AUS-11T03409702022-12-07 01:07:3243.4502-7.897151275727871Clb=4.2m/s t=-61.8C h=1.3% p=14.8hPa 404.000 MHz Type=RS41-SGP ser=T0340970 Radiosonde
EB4FMT-14T03409702022-12-07 01:07:2043.4509-7.898371375627832Clb=4.3m/s t=-62.1C h=1.3% p=14.9hPa 404.001 MHz Type=RS41-SGP ser=T0340970 Radiosonde auto_rx v1.5.9
CT7AUS-11T03409702022-12-07 01:06:5643.4527-7.90161156727735Clb=4.8m/s t=-62.5C h=1.3% p=15.2hPa 404.000 MHz Type=RS41-SGP ser=T0340970 Radiosonde
EB4FMT-14T03409702022-12-07 01:06:4643.4534-7.90311225027688Clb=5.2m/s t=-62.7C h=1.3% p=15.3hPa 404.001 MHz Type=RS41-SGP ser=T0340970 Radiosonde auto_rx v1.5.9
CT7AUS-11T03409702022-12-07 01:06:2243.4548-7.906661175927586Clb=4.7m/s t=-62.5C h=1.3% p=15.5hPa 404.000 MHz Type=RS41-SGP ser=T0340970 Radiosonde
EB4FMT-14T03409702022-12-07 01:06:1343.4554-7.908241185727544Clb=4.7m/s t=-62.5C h=1.4% p=15.6hPa 404.001 MHz Type=RS41-SGP ser=T0340970 Radiosonde auto_rx v1.5.9
CT7AUS-11T03409702022-12-07 01:05:4843.4575-7.912011223927405Clb=4.2m/s t=-62.5C h=1.4% p=16.0hPa 404.000 MHz Type=RS41-SGP ser=T0340970 Radiosonde
EB4FMT-14T03409702022-12-07 01:05:3943.4575-7.912131244327400Clb=4.5m/s t=-62.5C h=1.4% p=16.0hPa 404.001 MHz Type=RS41-SGP ser=T0340970 Radiosonde auto_rx v1.5.9
CT7AUS-11T03409702022-12-07 01:05:1343.4591-7.913991492827285Clb=4.6m/s t=-62.7C h=1.4% p=16.3hPa 404.000 MHz Type=RS41-SGP ser=T0340970 Radiosonde
EB4FMT-14T03409702022-12-07 01:05:0543.4595-7.914411443027256Clb=5.5m/s t=-62.7C h=1.4% p=16.4hPa 404.001 MHz Type=RS41-SGP ser=T0340970 Radiosonde auto_rx v1.5.9
EA4EKH-11T03409702022-12-07 01:04:4343.4609-7.915931322627134Clb=4.7m/s t=-62.4C h=1.3% p=16.7hPa 404.000 MHz Type=RS41-SGP ser=T0340970 Radiosonde
CT7AUS-11T03409702022-12-07 01:04:3943.4609-7.915931322627134Clb=4.7m/s t=-62.4C h=1.3% p=16.7hPa 404.000 MHz Type=RS41-SGP ser=T0340970 Radiosonde
EB4FMT-14T03409702022-12-07 01:04:3443.4611-7.916281343327110Clb=4.4m/s t=-62.5C h=1.4% p=16.8hPa 404.001 MHz Type=RS41-SGP ser=T0340970 Radiosonde auto_rx v1.5.9
CT7AUS-11T03409702022-12-07 01:04:0543.4624-7.919051373326964Clb=4.9m/s t=-62.6C h=1.3% p=17.2hPa 404.000 MHz Type=RS41-SGP ser=T0340970 Radiosonde
EB4FMT-14T03409702022-12-07 01:04:0043.4624-7.919051373326964Clb=4.9m/s t=-62.6C h=1.3% p=17.2hPa 404.001 MHz Type=RS41-SGP ser=T0340970 Radiosonde auto_rx v1.5.9
EA4EKH-11T03409702022-12-07 01:03:3643.4639-7.920631542426832Clb=5.2m/s t=-63.3C h=1.5% p=17.6hPa 404.000 MHz Type=RS41-SGP ser=T0340970 Radiosonde
EB4FMT-14T03409702022-12-07 01:03:3043.4641-7.920681721526818Clb=4.3m/s t=-63.2C h=1.4% p=17.6hPa 404.001 MHz Type=RS41-SGP ser=T0340970 Radiosonde auto_rx v1.5.9
EA4EKH-11T03409702022-12-07 01:03:0543.4653-7.921391442826702Clb=4.3m/s t=-62.8C h=1.5% p=18.0hPa 404.001 MHz Type=RS41-SGP ser=T0340970 Radiosonde
EB4FMT-14T03409702022-12-07 01:03:0043.4657-7.921691661726667Clb=5.4m/s t=-62.5C h=1.4% p=18.1hPa 404.001 MHz Type=RS41-SGP ser=T0340970 Radiosonde auto_rx v1.5.9
EB4FMT-14T03409702022-12-07 01:02:3043.4674-7.922811692226521Clb=4.3m/s t=-61.8C h=1.3% p=18.5hPa 404.001 MHz Type=RS41-SGP ser=T0340970 Radiosonde auto_rx v1.5.9
EB4FMT-14T03409702022-12-07 01:02:0043.4691-7.923811252026383Clb=4.3m/s t=-61.4C h=1.3% p=18.9hPa 404.001 MHz Type=RS41-SGP ser=T0340970 Radiosonde auto_rx v1.5.9
EB4FMT-14T03409702022-12-07 01:01:3043.4706-7.925551212626237Clb=5.7m/s t=-61.5C h=1.3% p=19.4hPa 404.001 MHz Type=RS41-SGP ser=T0340970 Radiosonde auto_rx v1.5.9
EA4EKH-11T03409702022-12-07 01:01:0243.4722-7.927331552626088Clb=4.4m/s t=-61.5C h=1.4% p=19.9hPa 404.000 MHz Type=RS41-SGP ser=T0340970 Radiosonde
EB4FMT-14T03409702022-12-07 01:01:0043.4722-7.927331552626088Clb=4.4m/s t=-61.5C h=1.4% p=19.9hPa 404.001 MHz Type=RS41-SGP ser=T0340970 Radiosonde auto_rx v1.5.9
EA4EKH-11T03409702022-12-07 01:00:5343.474-7.92891673525943Clb=4.0m/s t=-61.9C h=1.4% p=20.4hPa 404.000 MHz Type=RS41-SGP ser=T0340970 Radiosonde
EB4FMT-14T03409702022-12-07 01:00:5243.4761-7.930551261925808Clb=4.2m/s t=-61.9C h=1.4% p=20.8hPa 404.001 MHz Type=RS41-SGP ser=T0340970 Radiosonde auto_rx v1.5.9
EB4FMT-14T03409702022-12-07 01:00:5043.4779-7.932071291725667Clb=3.5m/s t=-61.6C h=1.4% p=21.3hPa 404.001 MHz Type=RS41-SGP ser=T0340970 Radiosonde auto_rx v1.5.9
EB4FMT-14T03409702022-12-07 01:00:4943.4793-7.933691641925535Clb=3.9m/s t=-62.1C h=1.3% p=21.8hPa 404.001 MHz Type=RS41-SGP ser=T0340970 Radiosonde auto_rx v1.5.9
EB4FMT-14T03409702022-12-07 01:00:4743.4818-7.936041425425378Clb=4.0m/s t=-63.1C h=1.5% p=22.3hPa 404.001 MHz Type=RS41-SGP ser=T0340970 Radiosonde auto_rx v1.5.9
EB4FMT-14T03409702022-12-07 01:00:4143.4842-7.938411393325242Clb=4.7m/s t=-62.7C h=1.5% p=22.9hPa 404.001 MHz Type=RS41-SGP ser=T0340970 Radiosonde auto_rx v1.5.9
EA4EKH-11T03409702022-12-07 01:00:4043.4844-7.938781323925224Clb=5.0m/s t=-62.6C h=1.4% p=22.9hPa 404.001 MHz Type=RS41-SGP ser=T0340970 Radiosonde
CT7AUS-11T03409702022-12-07 01:00:3943.4844-7.938781323925224Clb=5.0m/s t=-62.6C h=1.4% p=22.9hPa 404.000 MHz Type=RS41-SGP ser=T0340970 Radiosonde
EB4FMT-14T03409702022-12-07 01:00:3443.4855-7.939731751525124Clb=3.8m/s t=-62.9C h=1.5% p=23.3hPa 404.001 MHz Type=RS41-SGP ser=T0340970 Radiosonde auto_rx v1.5.9
EA4EKH-11T03409702022-12-07 01:00:3243.4858-7.939871481325097Clb=5.4m/s t=-63.0C h=1.5% p=23.4hPa 404.000 MHz Type=RS41-SGP ser=T0340970 Radiosonde
CT7AUS-11T03409702022-12-07 01:00:3143.4858-7.9399176925084Clb=4.4m/s t=-62.9C h=1.5% p=23.5hPa 404.000 MHz Type=RS41-SGP ser=T0340970 Radiosonde
EB4FMT-14T03409702022-12-07 01:00:2543.487-7.939482002824987Clb=3.6m/s t=-62.9C h=1.5% p=23.8hPa 404.001 MHz Type=RS41-SGP ser=T0340970 Radiosonde auto_rx v1.5.9
EA4EKH-11T03409702022-12-07 01:00:2143.4875-7.939342002624956Clb=4.6m/s t=-62.8C h=1.5% p=23.9hPa 404.000 MHz Type=RS41-SGP ser=T0340970 Radiosonde
EA4EKH-11T03409702022-12-07 01:00:2043.49-7.938731863724815Clb=4.1m/s t=-62.4C h=1.5% p=24.5hPa 404.001 MHz Type=RS41-SGP ser=T0340970 Radiosonde
EB4FMT-14T03409702022-12-07 01:00:1943.4922-7.93831933524710Clb=4.8m/s t=-62.2C h=1.5% p=24.9hPa 404.001 MHz Type=RS41-SGP ser=T0340970 Radiosonde auto_rx v1.5.9
EB4FMT-14T03409702022-12-07 01:00:1643.4947-7.937482003324570Clb=4.5m/s t=-62.1C h=1.4% p=25.5hPa 404.001 MHz Type=RS41-SGP ser=T0340970 Radiosonde auto_rx v1.5.9
EA4EKH-11T03409702022-12-07 01:00:0943.4954-7.937421922624524Clb=4.4m/s t=-62.8C h=1.5% p=25.7hPa 404.001 MHz Type=RS41-SGP ser=T0340970 Radiosonde
CT7AUS-11T03409702022-12-07 01:00:0743.4957-7.937321872824500Clb=5.0m/s t=-62.9C h=1.5% p=25.8hPa 404.000 MHz Type=RS41-SGP ser=T0340970 Radiosonde
EB4FMT-14T03409702022-12-07 00:59:4943.4968-7.937681822424416Clb=4.7m/s t=-63.0C h=1.5% p=26.2hPa 404.001 MHz Type=RS41-SGP ser=T0340970 Radiosonde auto_rx v1.5.9
EA4EKH-11T03409702022-12-07 00:59:3343.4972-7.937741551524379Clb=5.5m/s t=-63.2C h=1.6% p=26.4hPa 404.000 MHz Type=RS41-SGP ser=T0340970 Radiosonde
CT7AUS-11T03409702022-12-07 00:59:3043.4974-7.937831732424357Clb=4.1m/s t=-63.0C h=1.6% p=26.4hPa 404.000 MHz Type=RS41-SGP ser=T0340970 Radiosonde
EB4FMT-14T03409702022-12-07 00:59:0943.4982-7.938011682024295Clb=4.7m/s t=-63.0C h=1.5% p=26.7hPa 404.001 MHz Type=RS41-SGP ser=T0340970 Radiosonde auto_rx v1.5.9
EA4EKH-11T03409702022-12-07 00:58:5043.4988-7.938351501924236Clb=4.3m/s t=-62.9C h=1.5% p=27.0hPa 404.001 MHz Type=RS41-SGP ser=T0340970 Radiosonde
CT7AUS-11T03409702022-12-07 00:58:4643.4991-7.938561521724209Clb=4.5m/s t=-62.9C h=1.5% p=27.1hPa 404.000 MHz Type=RS41-SGP ser=T0340970 Radiosonde
EB4FMT-14T03409702022-12-07 00:58:2643.4998-7.939091631924139Clb=4.5m/s t=-63.1C h=1.5% p=27.4hPa 404.001 MHz Type=RS41-SGP ser=T0340970 Radiosonde auto_rx v1.5.9
EA4EKH-11T03409702022-12-07 00:58:0843.5-7.939621332424098Clb=5.0m/s t=-63.2C h=1.5% p=27.6hPa 404.001 MHz Type=RS41-SGP ser=T0340970 Radiosonde
CT7AUS-11T03409702022-12-07 00:58:0543.5006-7.939991393024057Clb=4.5m/s t=-63.3C h=1.6% p=27.8hPa 404.000 MHz Type=RS41-SGP ser=T0340970 Radiosonde
EB4FMT-14T03409702022-12-07 00:57:4843.5011-7.940691473324015Clb=5.4m/s t=-63.2C h=1.6% p=28.0hPa 404.001 MHz Type=RS41-SGP ser=T0340970 Radiosonde auto_rx v1.5.9
EA4EKH-11T03409702022-12-07 00:57:2743.5018-7.941441252823960Clb=4.3m/s t=-62.9C h=1.6% p=28.2hPa 404.001 MHz Type=RS41-SGP ser=T0340970 Radiosonde
CT7AUS-11T03409702022-12-07 00:57:2343.502-7.941671453123947Clb=4.6m/s t=-62.8C h=1.6% p=28.3hPa 404.000 MHz Type=RS41-SGP ser=T0340970 Radiosonde
EB4FMT-14T03409702022-12-07 00:57:0743.5026-7.94231262023894Clb=3.9m/s t=-62.4C h=1.5% p=28.5hPa 404.001 MHz Type=RS41-SGP ser=T0340970 Radiosonde auto_rx v1.5.9
EA4EKH-11T03409702022-12-07 00:56:4643.5033-7.942991142023821Clb=4.7m/s t=-62.3C h=1.5% p=28.9hPa 404.001 MHz Type=RS41-SGP ser=T0340970 Radiosonde
CT7AUS-11T03409702022-12-07 00:56:4343.5035-7.943191921923793Clb=4.5m/s t=-62.3C h=1.5% p=29.0hPa 404.000 MHz Type=RS41-SGP ser=T0340970 Radiosonde
EB4FMT-14T03409702022-12-07 00:56:2743.5038-7.943281401723756Clb=5.0m/s t=-62.5C h=1.5% p=29.2hPa 404.001 MHz Type=RS41-SGP ser=T0340970 Radiosonde auto_rx v1.5.9
EA4EKH-11T03409702022-12-07 00:56:0343.5046-7.943791372023677Clb=4.1m/s t=-62.7C h=1.6% p=29.6hPa 404.000 MHz Type=RS41-SGP ser=T0340970 Radiosonde
CT7AUS-11T03409702022-12-07 00:55:5943.5047-7.943941381323658Clb=4.9m/s t=-62.6C h=1.5% p=29.7hPa 404.000 MHz Type=RS41-SGP ser=T0340970 Radiosonde
EB4FMT-14T03409702022-12-07 00:55:4643.5051-7.944281821923606Clb=5.6m/s t=-62.4C h=1.6% p=29.9hPa 404.001 MHz Type=RS41-SGP ser=T0340970 Radiosonde auto_rx v1.5.9
EA4EKH-11T03409702022-12-07 00:55:2143.5057-7.944252102423528Clb=4.4m/s t=-62.0C h=1.5% p=30.3hPa 404.001 MHz Type=RS41-SGP ser=T0340970 Radiosonde
CT7AUS-11T03409702022-12-07 00:55:1743.5059-7.944141972423514Clb=4.2m/s t=-62.0C h=1.4% p=-1.0hPa 404.000 MHz Type=RS41-SGP ser=T0340970 Radiosonde
EB4FMT-14T03409702022-12-07 00:55:0543.5063-7.943922102223463Clb=4.7m/s t=-62.1C h=1.5% p=30.6hPa 404.001 MHz Type=RS41-SGP ser=T0340970 Radiosonde auto_rx v1.5.9
EA4EKH-11T03409702022-12-07 00:54:4143.507-7.943172012023382Clb=4.6m/s t=-62.1C h=1.5% p=31.0hPa 404.000 MHz Type=RS41-SGP ser=T0340970 Radiosonde
EB4FMT-14T03409702022-12-07 00:54:2643.5072-7.94285206723331Clb=4.2m/s t=-62.2C h=1.5% p=31.3hPa 404.001 MHz Type=RS41-SGP ser=T0340970 Radiosonde auto_rx v1.5.9
EA4EKH-11T03409702022-12-07 00:53:5743.5078-7.942491831123240Clb=5.4m/s t=-62.0C h=1.5% p=31.7hPa 404.001 MHz Type=RS41-SGP ser=T0340970 Radiosonde
CT7AUS-11T03409702022-12-07 00:53:5243.5078-7.94247233623226Clb=4.8m/s t=-61.9C h=1.5% p=-1.0hPa 404.000 MHz Type=RS41-SGP ser=T0340970 Radiosonde
EB4FMT-14T03409702022-12-07 00:53:4343.5079-7.94224217723196Clb=3.9m/s t=-61.7C h=1.5% p=32.0hPa 404.001 MHz Type=RS41-SGP ser=T0340970 Radiosonde auto_rx v1.5.9
EA4EKH-11T03409702022-12-07 00:53:1343.5084-7.942231651323100Clb=4.8m/s t=-61.5C h=-1.0% p=-1.0hPa 404.001 MHz Type=RS41-SGP ser=T0340970 Radiosonde
CT7AUS-11T03409702022-12-07 00:53:0943.5084-7.94222212223082Clb=5.2m/s t=-61.5C h=1.5% p=-1.0hPa 404.000 MHz Type=RS41-SGP ser=T0340970 Radiosonde
EB4FMT-14T03409702022-12-07 00:53:0243.5084-7.94222212223061Clb=4.3m/s t=-61.4C h=1.5% p=32.7hPa 404.001 MHz Type=RS41-SGP ser=T0340970 Radiosonde auto_rx v1.5.9
EA4EKH-11T03409702022-12-07 00:52:2843.5088-7.942132181122967Clb=4.0m/s t=-273.0C h=-1.0% p=-1.0hPa 404.001 MHz Type=RS41-SGP ser=T0340970 Radiosonde
CT7AUS-11T03409702022-12-07 00:52:2243.5089-7.94205214422950Clb=4.4m/s t=-273.0C h=-1.0% p=-1.0hPa 404.000 MHz Type=RS41-SGP ser=T0340970 Radiosonde
EB4FMT-14T03409702022-12-07 00:52:1543.5089-7.94205169922933Clb=4.1m/s t=-61.3C h=1.4% p=33.4hPa 404.001 MHz Type=RS41-SGP ser=T0340970 Radiosonde auto_rx v1.5.9
EA4EKH-11T03409702022-12-07 00:51:4043.5094-7.9421223422826Clb=3.9m/s t=-273.0C h=-1.0% p=-1.0hPa 404.001 MHz Type=RS41 ser=T0340970 Radiosonde
CT7AUS-11T03409702022-12-07 00:51:3643.5093-7.9421318422808Clb=4.2m/s t=-273.0C h=-1.0% p=-1.0hPa 404.000 MHz Type=RS41-SGP ser=T0340970 Radiosonde
EB4FMT-14T03409702022-12-07 00:51:3043.5093-7.9421344222804Clb=5.2m/s t=-61.2C h=1.4% p=34.0hPa 404.001 MHz Type=RS41-SGP ser=T0340970 Radiosonde auto_rx v1.5.9
CT7AUS-11T03409702022-12-07 00:50:5043.5097-7.94165210922686Clb=5.1m/s t=-273.0C h=-1.0% p=-1.0hPa 404.000 MHz Type=RS41-SGP ser=T0340970 Radiosonde
EB4FMT-14T03409702022-12-07 00:50:4543.5098-7.941572611122673Clb=4.5m/s t=-61.3C h=1.4% p=34.8hPa 404.001 MHz Type=RS41-SGP ser=T0340970 Radiosonde auto_rx v1.5.9
CT7AUS-11T03409702022-12-07 00:50:0343.5106-7.94034209922549Clb=4.7m/s t=-273.0C h=-1.0% p=-1.0hPa 404.000 MHz Type=RS41 ser=T0340970 Radiosonde
EB4FMT-14T03409702022-12-07 00:49:5943.5107-7.940272321522540Clb=3.9m/s t=-61.2C h=1.5% p=35.5hPa 404.001 MHz Type=RS41-SGP ser=T0340970 Radiosonde auto_rx v1.5.9
EB4FMT-14T03409702022-12-07 00:49:1643.5114-7.939082631322403Clb=5.0m/s t=-61.3C h=1.5% p=36.4hPa 404.001 MHz Type=RS41-SGP ser=T0340970 Radiosonde auto_rx v1.5.9
EB4FMT-14T03409702022-12-07 00:48:3143.5119-7.937572442222264Clb=5.0m/s t=-61.1C h=1.5% p=37.2hPa 404.001 MHz Type=RS41-SGP ser=T0340970 Radiosonde auto_rx v1.5.9
EB4FMT-14T03409702022-12-07 00:47:4743.5127-7.934972472822126Clb=5.0m/s t=-60.8C h=1.5% p=38.0hPa 404.001 MHz Type=RS41-SGP ser=T0340970 Radiosonde auto_rx v1.5.9
EB4FMT-14T03409702022-12-07 00:46:5843.5134-7.932392442021994Clb=3.7m/s t=-61.3C h=1.6% p=38.9hPa 404.001 MHz Type=RS41-SGP ser=T0340970 Radiosonde auto_rx v1.5.9
EB4FMT-14T03409702022-12-07 00:46:1243.5145-7.930632122421853Clb=4.9m/s t=-61.8C h=1.5% p=39.8hPa 404.001 MHz Type=RS41-SGP ser=T0340970 Radiosonde auto_rx v1.5.9
EB4FMT-14T03409702022-12-07 00:45:2643.5163-7.929681942621722Clb=3.6m/s t=-62.7C h=1.7% p=40.6hPa 404.001 MHz Type=RS41-SGP ser=T0340970 Radiosonde auto_rx v1.5.9
EB4FMT-14T03409702022-12-07 00:44:4343.5179-7.92932001521579Clb=4.6m/s t=-62.5C h=1.6% p=41.6hPa 404.001 MHz Type=RS41-SGP ser=T0340970 Radiosonde auto_rx v1.5.9
EB4FMT-14T03409702022-12-07 00:44:0043.5184-7.928632501321487Clb=4.9m/s t=-62.9C h=1.7% p=42.2hPa 404.001 MHz Type=RS41-SGP ser=T0340970 Radiosonde auto_rx v1.5.9
EB4FMT-14T03409702022-12-07 00:43:3043.5192-7.926672192421359Clb=3.9m/s t=-62.2C h=1.6% p=43.1hPa 404.001 MHz Type=RS41-SGP ser=T0340970 Radiosonde auto_rx v1.5.9
EB4FMT-14T03409702022-12-07 00:43:0043.5205-7.925531921921231Clb=3.5m/s t=-61.8C h=1.6% p=44.0hPa 404.001 MHz Type=RS41-SGP ser=T0340970 Radiosonde auto_rx v1.5.9
EB4FMT-14T03409702022-12-07 00:42:3443.5224-7.925251722221104Clb=3.9m/s t=-61.0C h=1.5% p=44.9hPa 404.001 MHz Type=RS41-SGP ser=T0340970 Radiosonde auto_rx v1.5.9
EB4FMT-14T03409702022-12-07 00:42:0043.5245-7.92551692420974Clb=4.8m/s t=-60.5C h=1.4% p=45.8hPa 404.001 MHz Type=RS41-SGP ser=T0340970 Radiosonde auto_rx v1.5.9
EB4FMT-14T03409702022-12-07 00:41:5643.5263-7.925991682220841Clb=4.7m/s t=-60.8C h=1.5% p=46.9hPa 404.001 MHz Type=RS41-SGP ser=T0340970 Radiosonde auto_rx v1.5.9
EB4FMT-14T03409702022-12-07 00:41:5143.5289-7.926541753920712Clb=5.0m/s t=-60.9C h=1.5% p=47.8hPa 404.001 MHz Type=RS41-SGP ser=T0340970 Radiosonde auto_rx v1.5.9
EB4FMT-14T03409702022-12-07 00:41:4343.5313-7.927131682420556Clb=5.1m/s t=-60.7C h=1.5% p=49.0hPa 404.001 MHz Type=RS41-SGP ser=T0340970 Radiosonde auto_rx v1.5.9
EB4FMT-14T03409702022-12-07 00:41:3443.5324-7.92776149720455Clb=4.6m/s t=-61.1C h=1.5% p=49.8hPa 404.001 MHz Type=RS41-SGP ser=T0340970 Radiosonde auto_rx v1.5.9
EB4FMT-14T03409702022-12-07 00:41:3343.5337-7.928251661720331Clb=3.8m/s t=-61.7C h=1.6% p=50.9hPa 404.001 MHz Type=RS41-SGP ser=T0340970 Radiosonde auto_rx v1.5.9
EB4FMT-14T03409702022-12-07 00:41:3143.5348-7.928531631320211Clb=4.3m/s t=-61.3C h=1.6% p=51.9hPa 404.001 MHz Type=RS41-SGP ser=T0340970 Radiosonde auto_rx v1.5.9
EB4FMT-14T03409702022-12-07 00:41:2943.5357-7.929571191520091Clb=3.2m/s t=-61.0C h=1.6% p=52.9hPa 404.001 MHz Type=RS41-SGP ser=T0340970 Radiosonde auto_rx v1.5.9
EB4FMT-14T03409702022-12-07 00:41:2843.5362-7.93121741719975Clb=4.7m/s t=-61.0C h=1.6% p=53.9hPa 404.001 MHz Type=RS41-SGP ser=T0340970 Radiosonde auto_rx v1.5.9
EB4FMT-14T03409702022-12-07 00:41:2643.5364-7.93303781319826Clb=4.1m/s t=-61.6C h=1.7% p=55.2hPa 404.001 MHz Type=RS41-SGP ser=T0340970 Radiosonde auto_rx v1.5.9
EB4FMT-14T03409702022-12-07 00:41:2443.536-7.9336838919735Clb=4.1m/s t=-61.9C h=1.7% p=56.0hPa 404.001 MHz Type=RS41-SGP ser=T0340970 Radiosonde auto_rx v1.5.9
EB4FMT-14T03409702022-12-07 00:41:2243.5357-7.933873419617Clb=4.3m/s t=-61.8C h=1.8% p=57.1hPa 404.001 MHz Type=RS41-SGP ser=T0340970 Radiosonde auto_rx v1.5.9
EB4FMT-14T03409702022-12-07 00:41:0543.5356-7.9338184219497Clb=3.2m/s t=-61.7C h=1.8% p=58.2hPa 404.001 MHz Type=RS41-SGP ser=T0340970 Radiosonde auto_rx v1.5.9
EB4FMT-14T03409702022-12-07 00:40:1743.5361-7.934491311119372Clb=5.0m/s t=-61.3C h=1.7% p=59.4hPa 404.001 MHz Type=RS41-SGP ser=T0340970 Radiosonde auto_rx v1.5.9
EB4FMT-14T03409702022-12-07 00:39:3343.5365-7.93466231919248Clb=3.9m/s t=-61.4C h=1.8% p=60.6hPa 404.001 MHz Type=RS41-SGP ser=T0340970 Radiosonde auto_rx v1.5.9
EB4FMT-14T03409702022-12-07 00:38:4743.5372-7.93415188919129Clb=3.5m/s t=-61.1C h=1.7% p=61.8hPa 404.001 MHz Type=RS41-SGP ser=T0340970 Radiosonde auto_rx v1.5.9
EB4FMT-14T03409702022-12-07 00:38:0043.538-7.934861591119010Clb=3.6m/s t=-61.5C h=1.8% p=63.0hPa 404.001 MHz Type=RS41-SGP ser=T0340970 Radiosonde auto_rx v1.5.9
EB4FMT-14T03409702022-12-07 00:37:1043.5385-7.9357250618892Clb=4.0m/s t=-61.5C h=1.8% p=64.2hPa 404.001 MHz Type=RS41-SGP ser=T0340970 Radiosonde auto_rx v1.5.9
EB4FMT-14T03409702022-12-07 00:36:1943.5386-7.93602229418770Clb=4.5m/s t=-61.2C h=1.8% p=65.5hPa 404.001 MHz Type=RS41-SGP ser=T0340970 Radiosonde auto_rx v1.5.9
EB4FMT-14T03409702022-12-07 00:35:3143.5393-7.935671641318646Clb=4.4m/s t=-60.8C h=1.8% p=66.8hPa 404.001 MHz Type=RS41-SGP ser=T0340970 Radiosonde auto_rx v1.5.9
EB4FMT-14T03409702022-12-07 00:34:4443.5397-7.9361586718518Clb=3.8m/s t=-60.5C h=1.8% p=68.2hPa 404.001 MHz Type=RS41-SGP ser=T0340970 Radiosonde auto_rx v1.5.9
EB4FMT-14T03409702022-12-07 00:33:5643.5395-7.937061211118397Clb=4.5m/s t=-61.0C h=1.9% p=69.6hPa 404.001 MHz Type=RS41-SGP ser=T0340970 Radiosonde auto_rx v1.5.9
EB4FMT-14T03409702022-12-07 00:33:0543.5399-7.93758117418275Clb=4.2m/s t=-61.7C h=2.0% p=70.9hPa 404.001 MHz Type=RS41-SGP ser=T0340970 Radiosonde auto_rx v1.5.9
EB4FMT-14T03409702022-12-07 00:32:1043.541-7.937561581518153Clb=4.2m/s t=-61.5C h=2.0% p=72.4hPa 404.001 MHz Type=RS41-SGP ser=T0340970 Radiosonde auto_rx v1.5.9
EB4FMT-14T03409702022-12-07 00:31:1943.5426-7.937711622218036Clb=3.9m/s t=-61.2C h=2.0% p=73.7hPa 404.001 MHz Type=RS41-SGP ser=T0340970 Radiosonde auto_rx v1.5.9
EB4FMT-14T03409702022-12-07 00:30:2943.544-7.938881442417920Clb=4.4m/s t=-60.6C h=2.0% p=75.1hPa 404.001 MHz Type=RS41-SGP ser=T0340970 Radiosonde auto_rx v1.5.9
EB4FMT-14T03409702022-12-07 00:29:3943.5451-7.941041002617808Clb=4.3m/s t=-61.2C h=2.1% p=76.5hPa 404.001 MHz Type=RS41-SGP ser=T0340970 Radiosonde auto_rx v1.5.9
EB4FMT-14T03409702022-12-07 00:28:4943.545-7.94433893017698Clb=3.5m/s t=-61.6C h=2.2% p=77.9hPa 404.001 MHz Type=RS41-SGP ser=T0340970 Radiosonde auto_rx v1.5.9
EB4FMT-14T03409702022-12-07 00:28:0043.5449-7.94741782817582Clb=4.1m/s t=-61.4C h=2.2% p=79.3hPa 404.001 MHz Type=RS41-SGP ser=T0340970 Radiosonde auto_rx v1.5.9
EB4FMT-14T03409702022-12-07 00:27:4343.5408-7.9695412416517Clb=3.3m/s t=-61.5C h=2.4% p=94.3hPa 404.001 MHz Type=RS41-SGP ser=T0340970 Radiosonde auto_rx v1.5.9
EB4FMT-14T03409702022-12-07 00:27:3743.5395-7.97132391716404Clb=4.1m/s t=-61.6C h=2.4% p=96.0hPa 404.001 MHz Type=RS41-SGP ser=T0340970 Radiosonde auto_rx v1.5.9
EB4FMT-14T03409702022-12-07 00:27:0243.5389-7.9725889616288Clb=3.4m/s t=-61.5C h=2.5% p=97.8hPa 404.001 MHz Type=RS41-SGP ser=T0340970 Radiosonde auto_rx v1.5.9
EB4FMT-14T03409702022-12-07 00:27:0043.5391-7.973771111516168Clb=3.4m/s t=-60.9C h=2.5% p=99.8hPa 404.001 MHz Type=RS41-SGP ser=T0340970 Radiosonde auto_rx v1.5.9
EB4FMT-14T03409702022-12-07 00:26:5843.5396-7.976061142816056Clb=3.9m/s t=-60.7C h=2.4% p=101.6hPa 404.001 MHz Type=RS41-SGP ser=T0340970 Radiosonde auto_rx v1.5.9
EB4FMT-14T03409702022-12-07 00:26:5243.5401-7.9794843015940Clb=3.3m/s t=-60.9C h=2.5% p=103.5hPa 404.001 MHz Type=RS41-SGP ser=T0340970 Radiosonde auto_rx v1.5.9
EB4FMT-14T03409702022-12-07 00:26:0843.5396-7.9822572815826Clb=4.6m/s t=-61.0C h=2.6% p=105.4hPa 404.001 MHz Type=RS41-SGP ser=T0340970 Radiosonde auto_rx v1.5.9
EB4FMT-14T03409702022-12-07 00:25:1743.5386-7.98432752215711Clb=4.3m/s t=-61.3C h=2.7% p=107.4hPa 404.001 MHz Type=RS41-SGP ser=T0340970 Radiosonde auto_rx v1.5.9
EB4FMT-14T03409702022-12-07 00:24:2643.5386-7.98721913315598Clb=3.0m/s t=-61.8C h=2.7% p=109.3hPa 404.001 MHz Type=RS41-SGP ser=T0340970 Radiosonde auto_rx v1.5.9
EB4FMT-14T03409702022-12-07 00:23:3543.5382-7.99096843115488Clb=2.9m/s t=-61.8C h=2.7% p=111.3hPa 404.001 MHz Type=RS41-SGP ser=T0340970 Radiosonde auto_rx v1.5.9
EB4FMT-14T03409702022-12-07 00:22:4043.5376-7.99503813915383Clb=2.9m/s t=-61.7C h=2.6% p=113.2hPa 404.001 MHz Type=RS41-SGP ser=T0340970 Radiosonde auto_rx v1.5.9
EB4FMT-14T03409702022-12-07 00:21:4843.5373-7.99883953515278Clb=3.4m/s t=-61.8C h=2.5% p=115.1hPa 404.001 MHz Type=RS41-SGP ser=T0340970 Radiosonde auto_rx v1.5.9
EB4FMT-14T03409702022-12-07 00:20:5843.5379-8.002931034315177Clb=3.7m/s t=-61.0C h=2.4% p=117.0hPa 404.001 MHz Type=RS41-SGP ser=T0340970 Radiosonde auto_rx v1.5.9
EB4FMT-14T03409702022-12-07 00:20:0743.5385-8.00765985015073Clb=3.9m/s t=-60.5C h=2.4% p=119.0hPa 404.001 MHz Type=RS41-SGP ser=T0340970 Radiosonde auto_rx v1.5.9
EB4FMT-14T03409702022-12-07 00:19:1643.5388-8.01316955614970Clb=3.5m/s t=-60.1C h=2.3% p=121.0hPa 404.001 MHz Type=RS41-SGP ser=T0340970 Radiosonde auto_rx v1.5.9
EB4FMT-14T03409702022-12-07 00:18:2443.5388-8.01839885014866Clb=4.0m/s t=-59.7C h=2.2% p=123.0hPa 404.001 MHz Type=RS41-SGP ser=T0340970 Radiosonde auto_rx v1.5.9
EA1JAY-15T03409702022-12-07 00:17:5643.5386-8.02084844414812Clb=3.4m/s 404.000MHz Type=RS41 rdzTTGOsonde
EB4FMT-14T03409702022-12-07 00:17:3343.5382-8.02308733914757Clb=4.1m/s t=-59.7C h=2.3% p=125.2hPa 404.001 MHz Type=RS41-SGP ser=T0340970 Radiosonde auto_rx v1.5.9
EB4FMT-14T03409702022-12-07 00:16:3743.5378-8.02684903714641Clb=4.3m/s t=-59.5C h=2.3% p=127.5hPa 404.001 MHz Type=RS41-SGP ser=T0340970 Radiosonde auto_rx v1.5.9
EB4FMT-14T03409702022-12-07 00:15:4743.5377-8.03064693714524Clb=4.2m/s t=-59.3C h=2.2% p=129.9hPa 404.001 MHz Type=RS41-SGP ser=T0340970 Radiosonde auto_rx v1.5.9
EB4FMT-14T03409702022-12-07 00:14:5643.537-8.03489754614407Clb=3.9m/s t=-58.7C h=2.1% p=132.4hPa 404.001 MHz Type=RS41-SGP ser=T0340970 Radiosonde auto_rx v1.5.9
EB4FMT-14T03409702022-12-07 00:14:0543.5361-8.03948744114295Clb=4.2m/s t=-58.5C h=2.1% p=134.8hPa 404.001 MHz Type=RS41-SGP ser=T0340970 Radiosonde auto_rx v1.5.9
EA1JAY-15T03409702022-12-07 00:13:5143.5358-8.04051694614267Clb=4.2m/s 404.000MHz Type=RS41 rdzTTGOsonde
EB4FMT-14T03409702022-12-07 00:13:1443.535-8.04373753714182Clb=4.0m/s t=-58.0C h=2.1% p=137.2hPa 404.001 MHz Type=RS41-SGP ser=T0340970 Radiosonde auto_rx v1.5.9
EA1JAY-15T03409702022-12-07 00:13:0743.5349-8.04414744114171Clb=4.6m/s 404.000MHz Type=RS41 rdzTTGOsonde
EB4FMT-14T03409702022-12-07 00:12:0043.5324-8.05335575213960Clb=3.1m/s t=-58.7C h=2.3% p=142.1hPa 404.001 MHz Type=RS41-SGP ser=T0340970 Radiosonde auto_rx v1.5.9
EB4FMT-14T03409702022-12-07 00:11:3343.5307-8.05734514313853Clb=3.3m/s t=-58.5C h=2.4% p=144.6hPa 404.001 MHz Type=RS41-SGP ser=T0340970 Radiosonde auto_rx v1.5.9
EB4FMT-14T03409702022-12-07 00:11:0043.5291-8.06057633513745Clb=3.1m/s t=-58.6C h=2.5% p=147.0hPa 404.001 MHz Type=RS41-SGP ser=T0340970 Radiosonde auto_rx v1.5.9
EB4FMT-14T03409702022-12-07 00:10:4743.5282-8.06435833713635Clb=4.7m/s t=-57.9C h=2.5% p=149.7hPa 404.001 MHz Type=RS41-SGP ser=T0340970 Radiosonde auto_rx v1.5.9
EB4FMT-14T03409702022-12-07 00:10:3043.5279-8.06874864413523Clb=3.9m/s t=-57.4C h=2.5% p=152.3hPa 404.001 MHz Type=RS41-SGP ser=T0340970 Radiosonde auto_rx v1.5.9
EB4FMT-14T03409702022-12-07 00:10:0143.5277-8.07372845013421Clb=3.7m/s t=-57.6C h=2.6% p=154.8hPa 404.001 MHz Type=RS41-SGP ser=T0340970 Radiosonde auto_rx v1.5.9
EB4FMT-14T03409702022-12-07 00:09:5743.5273-8.07925815613313Clb=3.3m/s t=-57.1C h=2.6% p=157.5hPa 404.001 MHz Type=RS41-SGP ser=T0340970 Radiosonde auto_rx v1.5.9
EB4FMT-14T03409702022-12-07 00:09:4843.5267-8.08483795613204Clb=4.1m/s t=-56.5C h=2.6% p=160.2hPa 404.001 MHz Type=RS41-SGP ser=T0340970 Radiosonde auto_rx v1.5.9
EB4FMT-14T03409702022-12-07 00:09:4743.5258-8.09027715413095Clb=4.0m/s t=-56.3C h=2.7% p=163.0hPa 404.001 MHz Type=RS41-SGP ser=T0340970 Radiosonde auto_rx v1.5.9
EB4FMT-14T03409702022-12-07 00:09:4543.5246-8.09566795012983Clb=2.9m/s t=-56.1C h=2.8% p=165.9hPa 404.001 MHz Type=RS41-SGP ser=T0340970 Radiosonde auto_rx v1.5.9
EB4FMT-14T03409702022-12-07 00:09:4443.5238-8.10068785212869Clb=3.5m/s t=-56.1C h=3.1% p=168.9hPa 404.001 MHz Type=RS41-SGP ser=T0340970 Radiosonde auto_rx v1.5.9
EB4FMT-14T03409702022-12-07 00:09:4243.5228-8.10638726112758Clb=3.6m/s t=-57.1C h=3.5% p=171.8hPa 404.001 MHz Type=RS41-SGP ser=T0340970 Radiosonde auto_rx v1.5.9
EB4FMT-14T03409702022-12-07 00:09:4043.5214-8.11363688012645Clb=3.5m/s t=-57.7C h=4.0% p=175.0hPa 404.001 MHz Type=RS41-SGP ser=T0340970 Radiosonde auto_rx v1.5.9
EB4FMT-14T03409702022-12-07 00:09:0643.519-8.12101637212536Clb=3.3m/s t=-57.6C h=4.3% p=178.0hPa 404.001 MHz Type=RS41-SGP ser=T0340970 Radiosonde auto_rx v1.5.9
EB4FMT-14T03409702022-12-07 00:08:2043.5168-8.12734646112431Clb=3.5m/s t=-57.8C h=4.7% p=181.0hPa 404.001 MHz Type=RS41-SGP ser=T0340970 Radiosonde auto_rx v1.5.9
EB4FMT-14T03409702022-12-07 00:07:3143.5152-8.13313705912327Clb=3.6m/s t=-57.9C h=4.9% p=184.0hPa 404.001 MHz Type=RS41-SGP ser=T0340970 Radiosonde auto_rx v1.5.9
EB4FMT-14T03409702022-12-07 00:06:4143.5135-8.1384625612227Clb=3.1m/s t=-58.1C h=5.0% p=186.9hPa 404.001 MHz Type=RS41-SGP ser=T0340970 Radiosonde auto_rx v1.5.9
EB4FMT-14T03409702022-12-07 00:05:4943.5118-8.14381666112126Clb=3.3m/s t=-58.6C h=6.6% p=190.0hPa 404.001 MHz Type=RS41-SGP ser=T0340970 Radiosonde auto_rx v1.5.9
EB4FMT-14T03409702022-12-07 00:04:5843.5104-8.14948696112024Clb=3.1m/s t=-59.7C h=8.2% p=193.1hPa 404.001 MHz Type=RS41-SGP ser=T0340970 Radiosonde auto_rx v1.5.9
EB4FMT-14T03409702022-12-07 00:04:1043.5086-8.15545745911919Clb=3.4m/s t=-60.4C h=8.4% p=196.4hPa 404.001 MHz Type=RS41-SGP ser=T0340970 Radiosonde auto_rx v1.5.9
EB4FMT-14T03409702022-12-07 00:03:2243.5069-8.16146646111807Clb=3.7m/s t=-60.2C h=10.3% p=200.0hPa 404.001 MHz Type=RS41-SGP ser=T0340970 Radiosonde auto_rx v1.5.9
EB4FMT-14T03409702022-12-07 00:02:3443.505-8.16708675911693Clb=3.6m/s t=-61.0C h=14.0% p=203.6hPa 404.001 MHz Type=RS41-SGP ser=T0340970 Radiosonde auto_rx v1.5.9
EB4FMT-14T03409702022-12-07 00:01:4243.5034-8.17344746111581Clb=4.1m/s t=-60.5C h=15.5% p=207.3hPa 404.001 MHz Type=RS41-SGP ser=T0340970 Radiosonde auto_rx v1.5.9
EB4FMT-14T03409702022-12-07 00:00:5043.5023-8.17999786711469Clb=3.9m/s t=-61.6C h=28.8% p=211.1hPa 404.001 MHz Type=RS41-SGP ser=T0340970 Radiosonde auto_rx v1.5.9
EB4FMT-14T03409702022-12-07 00:00:0043.5012-8.18773808111364Clb=3.9m/s t=-61.8C h=30.6% p=214.7hPa 404.001 MHz Type=RS41-SGP ser=T0340970 Radiosonde auto_rx v1.5.9
EB4FMT-14T03409702022-12-06 23:59:3943.4997-8.19571747811266Clb=3.1m/s t=-61.6C h=27.0% p=218.1hPa 404.001 MHz Type=RS41-SGP ser=T0340970 Radiosonde auto_rx v1.5.9
EB4FMT-14T03409702022-12-06 23:59:3743.498-8.20302707811170Clb=2.5m/s t=-61.6C h=25.0% p=221.5hPa 404.001 MHz Type=RS41-SGP ser=T0340970 Radiosonde auto_rx v1.5.9
EB4FMT-14T03409702022-12-06 23:59:3643.4958-8.21003677211071Clb=3.1m/s t=-61.7C h=31.9% p=225.1hPa 404.001 MHz Type=RS41-SGP ser=T0340970 Radiosonde auto_rx v1.5.9
EB4FMT-14T03409702022-12-06 23:59:3143.494-8.21691727010974Clb=3.7m/s t=-61.1C h=32.7% p=228.6hPa 404.001 MHz Type=RS41-SGP ser=T0340970 Radiosonde auto_rx v1.5.9
EB4FMT-14T03409702022-12-06 23:59:1643.4922-8.22376687210872Clb=3.2m/s t=-60.6C h=49.6% p=232.4hPa 404.001 MHz Type=RS41-SGP ser=T0340970 Radiosonde auto_rx v1.5.9
EB4FMT-14T03409702022-12-06 23:59:0043.4902-8.23034676910764Clb=2.7m/s t=-60.0C h=57.4% p=236.5hPa 404.001 MHz Type=RS41-SGP ser=T0340970 Radiosonde auto_rx v1.5.9
EB4FMT-14T03409702022-12-06 23:58:5843.4879-8.23681616910655Clb=3.0m/s t=-59.3C h=48.0% p=240.7hPa 404.001 MHz Type=RS41-SGP ser=T0340970 Radiosonde auto_rx v1.5.9
EB4FMT-14T03409702022-12-06 23:58:3543.4854-8.243617210545Clb=3.4m/s t=-58.8C h=44.1% p=245.0hPa 404.001 MHz Type=RS41-SGP ser=T0340970 Radiosonde auto_rx v1.5.9
EB4FMT-14T03409702022-12-06 23:57:4543.4825-8.24987648710409Clb=8.1m/s t=-57.5C h=38.9% p=250.2hPa 404.001 MHz Type=RS41-SGP ser=T0340970 Radiosonde auto_rx v1.5.9
EB4FMT-14T03409702022-12-06 23:56:5243.4795-8.25655577610247Clb=5.9m/s t=-56.1C h=34.4% p=256.7hPa 404.001 MHz Type=RS41-SGP ser=T0340970 Radiosonde auto_rx v1.5.9
EB4FMT-14T03409702022-12-06 23:56:0143.4763-8.26344587810132Clb=2.8m/s t=-55.0C h=31.2% p=261.4hPa 404.001 MHz Type=RS41-SGP ser=T0340970 Radiosonde auto_rx v1.5.9
EB4FMT-14T03409702022-12-06 23:55:1343.4731-8.2704587810023Clb=3.1m/s t=-54.3C h=33.3% p=265.9hPa 404.001 MHz Type=RS41-SGP ser=T0340970 Radiosonde auto_rx v1.5.9
EB4FMT-14T03409702022-12-06 23:54:2643.4699-8.2768853789918Clb=3.0m/s t=-53.4C h=33.8% p=270.3hPa 404.001 MHz Type=RS41-SGP ser=T0340970 Radiosonde auto_rx v1.5.9
EB4FMT-14T03409702022-12-06 23:53:3843.4667-8.2833456749813Clb=3.5m/s t=-52.6C h=43.5% p=274.7hPa 404.001 MHz Type=RS41-SGP ser=T0340970 Radiosonde auto_rx v1.5.9
EB4FMT-14T03409702022-12-06 23:52:4943.4638-8.2896858709709Clb=3.9m/s t=-51.7C h=41.2% p=279.1hPa 404.001 MHz Type=RS41-SGP ser=T0340970 Radiosonde auto_rx v1.5.9
EB4FMT-14T03409702022-12-06 23:52:0043.4612-8.2958258749604Clb=4.1m/s t=-51.0C h=49.8% p=283.7hPa 404.001 MHz Type=RS41-SGP ser=T0340970 Radiosonde auto_rx v1.5.9
EB4FMT-14T03409702022-12-06 23:51:3043.4589-8.3021565659472Clb=4.4m/s t=-49.8C h=37.5% p=289.6hPa 404.001 MHz Type=RS41-SGP ser=T0340970 Radiosonde auto_rx v1.5.9
EB4FMT-14T03409702022-12-06 23:51:2143.4567-8.3083668599352Clb=4.6m/s t=-49.0C h=41.7% p=294.9hPa 404.001 MHz Type=RS41-SGP ser=T0340970 Radiosonde auto_rx v1.5.9
EB4FMT-14T03409702022-12-06 23:51:0043.4545-8.3138658599236Clb=3.3m/s t=-47.9C h=42.8% p=300.1hPa 404.001 MHz Type=RS41-SGP ser=T0340970 Radiosonde auto_rx v1.5.9
EB4FMT-14T03409702022-12-06 23:50:5543.4523-8.3189358529125Clb=3.5m/s t=-46.9C h=33.2% p=305.3hPa 404.001 MHz Type=RS41-SGP ser=T0340970 Radiosonde auto_rx v1.5.9
EB4FMT-14T03409702022-12-06 23:50:5443.4503-8.323862529018Clb=4.2m/s t=-46.3C h=23.1% p=310.2hPa 404.001 MHz Type=RS41-SGP ser=T0340970 Radiosonde auto_rx v1.5.9
EB4FMT-14T03409702022-12-06 23:50:5243.4484-8.3285457488910Clb=3.2m/s t=-45.4C h=22.2% p=315.2hPa 404.001 MHz Type=RS41-SGP ser=T0340970 Radiosonde auto_rx v1.5.9
EB4FMT-14T03409702022-12-06 23:50:4643.4464-8.3333557578805Clb=3.0m/s t=-44.6C h=23.4% p=320.2hPa 404.001 MHz Type=RS41-SGP ser=T0340970 Radiosonde auto_rx v1.5.9
EB4FMT-14T03409702022-12-06 23:50:1043.4447-8.3386263548701Clb=3.4m/s t=-43.6C h=21.9% p=325.3hPa 404.001 MHz Type=RS41-SGP ser=T0340970 Radiosonde auto_rx v1.5.9
EB4FMT-14T03409702022-12-06 23:49:2343.4429-8.3439469578595Clb=3.1m/s t=-42.5C h=20.0% p=330.4hPa 404.001 MHz Type=RS41-SGP ser=T0340970 Radiosonde auto_rx v1.5.9
EB4FMT-14T03409702022-12-06 23:48:3543.4411-8.3494964578489Clb=3.6m/s t=-41.5C h=18.3% p=335.6hPa 404.001 MHz Type=RS41-SGP ser=T0340970 Radiosonde auto_rx v1.5.9
EB4FMT-14T03409702022-12-06 23:47:5543.4393-8.3549568598380Clb=3.8m/s t=-40.5C h=16.0% p=341.1hPa 404.001 MHz Type=RS41-SGP ser=T0340970 Radiosonde auto_rx v1.5.9
EB4FMT-14T03409702022-12-06 23:47:0543.4374-8.3604165598272Clb=3.8m/s t=-39.7C h=13.0% p=346.5hPa 404.001 MHz Type=RS41-SGP ser=T0340970 Radiosonde auto_rx v1.5.9
EB4FMT-14T03409702022-12-06 23:46:1743.4355-8.3660871618162Clb=3.6m/s t=-38.7C h=9.5% p=352.1hPa 404.001 MHz Type=RS41-SGP ser=T0340970 Radiosonde auto_rx v1.5.9
EB4FMT-14T03409702022-12-06 23:45:2943.4338-8.3714564578050Clb=3.4m/s t=-37.7C h=8.9% p=357.8hPa 404.001 MHz Type=RS41-SGP ser=T0340970 Radiosonde auto_rx v1.5.9
EB4FMT-14T03409702022-12-06 23:44:4443.432-8.3762460507938Clb=4.1m/s t=-37.0C h=10.1% p=363.7hPa 404.001 MHz Type=RS41-SGP ser=T0340970 Radiosonde auto_rx v1.5.9
EB4FMT-14T03409702022-12-06 23:44:0043.4298-8.3809558527826Clb=3.6m/s t=-36.2C h=10.1% p=369.7hPa 404.001 MHz Type=RS41-SGP ser=T0340970 Radiosonde auto_rx v1.5.9
EB4FMT-14T03409702022-12-06 23:43:3043.4277-8.3852158507724Clb=4.1m/s t=-35.5C h=11.0% p=375.2hPa 404.001 MHz Type=RS41-SGP ser=T0340970 Radiosonde auto_rx v1.5.9
EB4FMT-14T03409702022-12-06 23:43:1943.426-8.3895363447615Clb=3.9m/s t=-35.2C h=18.5% p=381.0hPa 404.001 MHz Type=RS41-SGP ser=T0340970 Radiosonde auto_rx v1.5.9
EB4FMT-14T03409702022-12-06 23:43:0043.4244-8.39342287501Clb=3.3m/s t=-35.4C h=89.3% p=387.3hPa 404.001 MHz Type=RS41-SGP ser=T0340970 Radiosonde auto_rx v1.5.9
EB4FMT-14T03409702022-12-06 23:42:5543.4227-8.3956747337378Clb=3.7m/s t=-34.3C h=88.4% p=394.1hPa 404.001 MHz Type=RS41-SGP ser=T0340970 Radiosonde auto_rx v1.5.9
EB4FMT-14T03409702022-12-06 23:42:1443.4209-8.398551377265Clb=3.3m/s t=-33.2C h=81.9% p=400.5hPa 404.001 MHz Type=RS41-SGP ser=T0340970 Radiosonde auto_rx v1.5.9
EB4FMT-14T03409702022-12-06 23:41:2743.4191-8.4015248397156Clb=4.5m/s t=-32.2C h=65.8% p=406.8hPa 404.001 MHz Type=RS41-SGP ser=T0340970 Radiosonde auto_rx v1.5.9
EB4FMT-14T03409702022-12-06 23:40:4343.4173-8.4046647397046Clb=4.1m/s t=-31.1C h=31.1% p=413.1hPa 404.001 MHz Type=RS41-SGP ser=T0340970 Radiosonde auto_rx v1.5.9
EB4FMT-14T03409702022-12-06 23:40:0043.4155-8.4078149396936Clb=4.0m/s t=-30.1C h=29.5% p=419.7hPa 404.001 MHz Type=RS41-SGP ser=T0340970 Radiosonde auto_rx v1.5.9
EB4FMT-14T03409702022-12-06 23:39:3043.4136-8.410957416810Clb=4.8m/s t=-28.9C h=20.1% p=427.0hPa 404.001 MHz Type=RS41-SGP ser=T0340970 Radiosonde auto_rx v1.5.9
EB4FMT-14T03409702022-12-06 23:39:0043.4118-8.4137134266666Clb=3.9m/s t=-27.6C h=19.9% p=435.8hPa 404.001 MHz Type=RS41-SGP ser=T0340970 Radiosonde auto_rx v1.5.9
EB4FMT-14T03409702022-12-06 23:38:3043.41-8.4158340226492Clb=5.8m/s t=-26.1C h=17.0% p=446.4hPa 404.001 MHz Type=RS41-SGP ser=T0340970 Radiosonde auto_rx v1.5.9
EB4FMT-14T03409702022-12-06 23:38:1543.4089-8.4171642156366Clb=3.1m/s t=-25.2C h=16.2% p=454.2hPa 404.001 MHz Type=RS41-SGP ser=T0340970 Radiosonde auto_rx v1.5.9
EB4FMT-14T03409702022-12-06 23:38:0643.4081-8.417933776259Clb=4.8m/s t=-24.6C h=16.9% p=461.0hPa 404.001 MHz Type=RS41-SGP ser=T0340970 Radiosonde auto_rx v1.5.9
EB4FMT-14T03409702022-12-06 23:37:2443.4072-8.419154206141Clb=3.8m/s t=-23.5C h=17.5% p=468.6hPa 404.001 MHz Type=RS41-SGP ser=T0340970 Radiosonde auto_rx v1.5.9
EB4FMT-14T03409702022-12-06 23:36:4043.4062-8.4206840226006Clb=5.1m/s t=-22.3C h=16.4% p=477.1hPa 404.001 MHz Type=RS41-SGP ser=T0340970 Radiosonde auto_rx v1.5.9
EB4FMT-14T03409702022-12-06 23:36:0043.4049-8.4225341305869Clb=4.1m/s t=-21.9C h=13.4% p=486.1hPa 404.001 MHz Type=RS41-SGP ser=T0340970 Radiosonde auto_rx v1.5.9
EB4FMT-14T03409702022-12-06 23:35:3043.4032-8.4246642315749Clb=2.4m/s t=-21.0C h=7.3% p=494.1hPa 404.001 MHz Type=RS41-SGP ser=T0340970 Radiosonde auto_rx v1.5.9
EB4FMT-14T03409702022-12-06 23:35:0043.4015-8.4266732285639Clb=3.8m/s t=-20.3C h=14.0% p=501.5hPa 404.001 MHz Type=RS41-SGP ser=T0340970 Radiosonde auto_rx v1.5.9
EA1JAY-15T03409702022-12-06 23:34:5343.4012-8.4269843305619Clb=4.3m/s 404.000MHz Type=RS41-SGP rdzTTGOsonde
EB4FMT-14T03409702022-12-06 23:34:3043.3996-8.4285535315523Clb=3.8m/s t=-19.3C h=20.7% p=509.4hPa 404.001 MHz Type=RS41-SGP ser=T0340970 Radiosonde auto_rx v1.5.9
EA1JAY-15T03409702022-12-06 23:34:2243.3992-8.4289131315502Clb=4.1m/s 404.000MHz Type=RS41-SGP rdzTTGOsonde
EB4FMT-14T03409702022-12-06 23:34:0043.3978-8.4301530265405Clb=5.5m/s t=-18.3C h=15.8% p=517.6hPa 404.001 MHz Type=RS41-SGP ser=T0340970 Radiosonde auto_rx v1.5.9
EB4FMT-14T03409702022-12-06 23:33:4943.3962-8.4312910205277Clb=3.8m/s t=-17.3C h=18.1% p=526.6hPa 404.001 MHz Type=RS41-SGP ser=T0340970 Radiosonde auto_rx v1.5.9
EB4FMT-14T03409702022-12-06 23:33:2043.3948-8.4322143195156Clb=5.5m/s t=-16.1C h=17.3% p=535.1hPa 404.001 MHz Type=RS41-SGP ser=T0340970 Radiosonde auto_rx v1.5.9
EB4FMT-14T03409702022-12-06 23:32:3943.3934-8.4332416225024Clb=4.5m/s t=-14.9C h=9.9% p=544.5hPa 404.001 MHz Type=RS41-SGP ser=T0340970 Radiosonde auto_rx v1.5.9
EB4FMT-14T03409702022-12-06 23:32:0043.3917-8.4342927224912Clb=3.8m/s t=-13.9C h=5.9% p=552.7hPa 404.001 MHz Type=RS41-SGP ser=T0340970 Radiosonde auto_rx v1.5.9
EA1JAY-15T03409702022-12-06 23:31:3243.3905-8.4354338224822Clb=4.9m/s 404.000MHz Type=RS41-SGP rdzTTGOsonde
EB4FMT-14T03409702022-12-06 23:31:3043.3903-8.4355726224806Clb=3.8m/s t=-13.0C h=4.8% p=560.4hPa 404.001 MHz Type=RS41-SGP ser=T0340970 Radiosonde auto_rx v1.5.9
EA1JAY-15T03409702022-12-06 23:31:1243.3896-8.4364240224738Clb=5.1m/s 404.000MHz Type=RS41-SGP rdzTTGOsonde
EB4FMT-14T03409702022-12-06 23:31:0043.389-8.4371136224685Clb=4.8m/s t=-12.5C h=5.4% p=569.4hPa 404.001 MHz Type=RS41-SGP ser=T0340970 Radiosonde auto_rx v1.5.9
EA1JAY-15T03409702022-12-06 23:30:5143.3887-8.4374241194661Clb=4.3m/s 404.000MHz Type=RS41 rdzTTGOsonde
EB4FMT-14T03409702022-12-06 23:30:3043.3878-8.4382118174580Clb=3.5m/s t=-11.9C h=7.9% p=577.3hPa 404.001 MHz Type=RS41-SGP ser=T0340970 Radiosonde auto_rx v1.5.9
EB4FMT-14T03409702022-12-06 23:30:0043.3861-8.438739194453Clb=3.3m/s t=-11.3C h=8.6% p=586.9hPa 404.001 MHz Type=RS41-SGP ser=T0340970 Radiosonde auto_rx v1.5.9
EB4FMT-14T03409702022-12-06 23:29:3043.3849-8.4396931194325Clb=4.1m/s t=-10.2C h=6.3% p=596.7hPa 404.001 MHz Type=RS41-SGP ser=T0340970 Radiosonde auto_rx v1.5.9
EB4FMT-14T03409702022-12-06 23:29:1143.3835-8.4407627204202Clb=4.2m/s t=-9.1C h=4.7% p=606.3hPa 404.001 MHz Type=RS41-SGP ser=T0340970 Radiosonde auto_rx v1.5.9
EB4FMT-14T03409702022-12-06 23:28:3543.3822-8.4419228194081Clb=3.6m/s t=-8.1C h=6.8% p=615.9hPa 404.001 MHz Type=RS41-SGP ser=T0340970 Radiosonde auto_rx v1.5.9
EB4FMT-14T03409702022-12-06 23:28:0043.3809-8.4433645203956Clb=3.5m/s t=-7.1C h=5.5% p=625.9hPa 404.001 MHz Type=RS41-SGP ser=T0340970 Radiosonde auto_rx v1.5.9
EB4FMT-14T03409702022-12-06 23:27:3043.3795-8.4449342203813Clb=4.0m/s t=-5.9C h=6.6% p=637.4hPa 404.001 MHz Type=RS41-SGP ser=T0340970 Radiosonde auto_rx v1.5.9
EA1JAY-15T03409702022-12-06 23:27:2743.3794-8.4450444243804Clb=4.1m/s 404.000MHz Type=RS41 rdzTTGOsonde
EB4FMT-14T03409702022-12-06 23:27:0043.3782-8.4463938223710Clb=4.1m/s t=-5.0C h=5.2% p=645.7hPa 404.001 MHz Type=RS41-SGP ser=T0340970 Radiosonde auto_rx v1.5.9
EB4FMT-14T03409702022-12-06 23:26:3043.3771-8.4478840243592Clb=4.5m/s t=-4.0C h=3.2% p=655.6hPa 404.001 MHz Type=RS41-SGP ser=T0340970 Radiosonde auto_rx v1.5.9
EB4FMT-14T03409702022-12-06 23:26:0043.3761-8.4487635173461Clb=5.1m/s t=-3.3C h=6.7% p=666.6hPa 404.001 MHz Type=RS41-SGP ser=T0340970 Radiosonde auto_rx v1.5.9
EB4FMT-14T03409702022-12-06 23:25:3043.3754-8.4492525113324Clb=4.8m/s t=-2.2C h=5.1% p=678.1hPa 404.001 MHz Type=RS41-SGP ser=T0340970 Radiosonde auto_rx v1.5.9
EB4FMT-14T03409702022-12-06 23:25:0843.3745-8.4496838113203Clb=5.7m/s t=-1.7C h=3.1% p=688.5hPa 404.001 MHz Type=RS41-SGP ser=T0340970 Radiosonde auto_rx v1.5.9
EB4FMT-14T03409702022-12-06 23:24:3443.3736-8.45023943078Clb=5.3m/s t=-1.6C h=4.0% p=699.6hPa 404.001 MHz Type=RS41-SGP ser=T0340970 Radiosonde auto_rx v1.5.9
EB4FMT-14T03409702022-12-06 23:24:0043.3729-8.45005346172960Clb=4.7m/s t=-7.6C h=99.3% p=710.2hPa 404.001 MHz Type=RS41-SGP ser=T0340970 Radiosonde auto_rx v1.5.9
EB4FMT-14T03409702022-12-06 23:23:3043.3721-8.449833192814Clb=4.3m/s t=-6.2C h=99.7% p=723.2hPa 404.001 MHz Type=RS41-SGP ser=T0340970 Radiosonde auto_rx v1.5.9
EB4FMT-14T03409702022-12-06 23:23:0043.371-8.44953347152657Clb=5.6m/s t=-5.1C h=95.8% p=738.0hPa 404.001 MHz Type=RS41-SGP ser=T0340970 Radiosonde auto_rx v1.5.9
EB4FMT-14T03409702022-12-06 23:22:3043.3699-8.44947346132529Clb=5.2m/s t=-3.9C h=88.7% p=750.0hPa 404.001 MHz Type=RS41-SGP ser=T0340970 Radiosonde auto_rx v1.5.9
EB4FMT-14T03409702022-12-06 23:22:0043.3693-8.4494433372372Clb=5.6m/s t=-2.2C h=80.9% p=765.2hPa 404.001 MHz Type=RS41-SGP ser=T0340970 Radiosonde auto_rx v1.5.9
EB4FMT-14T03409702022-12-06 23:21:3043.3684-8.4497934872185Clb=8.3m/s t=-0.4C h=74.0% p=783.3hPa 404.001 MHz Type=RS41-SGP ser=T0340970 Radiosonde auto_rx v1.5.9
EB4FMT-14T03409702022-12-06 23:21:0043.3677-8.4499416191992Clb=6.3m/s t=1.4C h=67.0% p=802.4hPa 404.001 MHz Type=RS41-SGP ser=T0340970 Radiosonde auto_rx v1.5.9
EB4FMT-14T03409702022-12-06 23:20:3143.3671-8.450184291813Clb=4.8m/s t=3.1C h=62.0% p=820.5hPa 404.001 MHz Type=RS41-SGP ser=T0340970 Radiosonde auto_rx v1.5.9
EB4FMT-14T03409702022-12-06 23:20:0043.3664-8.450524191639Clb=5.5m/s t=3.9C h=86.8% p=838.1hPa 404.001 MHz Type=RS41-SGP ser=T0340970 Radiosonde auto_rx v1.5.9
EB4FMT-14T03409702022-12-06 23:19:3043.3654-8.45023338191510Clb=5.4m/s t=4.8C h=87.2% p=851.6hPa 404.001 MHz Type=RS41-SGP ser=T0340970 Radiosonde auto_rx v1.5.9
EB4FMT-14T03409702022-12-06 23:19:0043.3645-8.44983278111359Clb=3.6m/s t=5.4C h=90.1% p=867.2hPa 404.001 MHz Type=RS41-SGP ser=T0340970 Radiosonde auto_rx v1.5.9
EB4FMT-14T03409702022-12-06 23:18:3043.364-8.4489633371216Clb=2.3m/s t=6.5C h=88.9% p=882.6hPa 404.001 MHz Type=RS41-SGP ser=T0340970 Radiosonde auto_rx v1.5.9
EB4FMT-14T03409702022-12-06 23:18:0043.3634-8.44797275111073Clb=4.0m/s t=7.5C h=-1.0% p=-1.0hPa 404.001 MHz Type=RS41 ser=T0340970 Radiosonde auto_rx v1.5.9